Observation data for Caprock Canyons on 11/10/2019      Previous  Date       Current Mesonet Observations  Soil Data  Daily Summary Page  Observations in Plain Language
KQU1 100600Z 22011KT 13/08 A3007 RMK A01 T01330078  RH  069%=      5-min Rain = 0
KQU1 100601Z 22011KT 13/08 A3007 RMK A01 T01320078  RH  069%=      5-min Rain = 0
KQU1 100602Z 22011KT 13/08 A3007 RMK A01 T01320078  RH  070%=      5-min Rain = 0
KQU1 100603Z 22011KT 13/08 A3007 RMK A01 T01320078  RH  070%=      5-min Rain = 0
KQU1 100604Z 22013KT 13/08 A3007 RMK A01 T01320078  RH  070%=      5-min Rain = 0
KQU1 100605Z 22010KT 13/08 A3007 RMK A01 T01330078  RH  069%=      5-min Rain = 0
KQU1 100606Z 22011KT 13/08 A3007 RMK A01 T01320077  RH  070%=      5-min Rain = 0
KQU1 100607Z 22012KT 13/08 A3007 RMK A01 T01320078  RH  070%=      5-min Rain = 0
KQU1 100608Z 22011KT 13/08 A3007 RMK A01 T01320078  RH  070%=      5-min Rain = 0
KQU1 100609Z 22011KT 13/08 A3007 RMK A01 T01320078  RH  070%=      5-min Rain = 0
KQU1 100610Z 22011KT 13/08 A3007 RMK A01 T01320078  RH  070%=      5-min Rain = 0
KQU1 100611Z 22012KT 13/08 A3007 RMK A01 T01310078  RH  070%=      5-min Rain = 0
KQU1 100612Z 22012KT 13/08 A3007 RMK A01 T01310078  RH  070%=      5-min Rain = 0
KQU1 100613Z 22012KT 13/08 A3007 RMK A01 T01310078  RH  070%=      5-min Rain = 0
KQU1 100614Z 22013KT 13/08 A3007 RMK A01 T01310078  RH  071%=      5-min Rain = 0
KQU1 100615Z 22012KT 13/08 A3007 RMK A01 T01310078  RH  071%=      5-min Rain = 0
KQU1 100616Z 22012KT 13/08 A3007 RMK A01 T01300078  RH  071%=      5-min Rain = 0
KQU1 100617Z 22012KT 13/08 A3007 RMK A01 T01300078  RH  071%=      5-min Rain = 0
KQU1 100618Z 22012KT 13/08 A3007 RMK A01 T01290078  RH  071%=      5-min Rain = 0
KQU1 100619Z 22012KT 13/08 A3007 RMK A01 T01290078  RH  071%=      5-min Rain = 0
KQU1 100620Z 22012KT 13/08 A3007 RMK A01 T01280078  RH  071%=      5-min Rain = 0
KQU1 100621Z 22011KT 13/08 A3007 RMK A01 T01280078  RH  072%=      5-min Rain = 0
KQU1 100622Z 22011KT 13/08 A3007 RMK A01 T01270077  RH  072%=      5-min Rain = 0
KQU1 100623Z 22011KT 13/08 A3007 RMK A01 T01260077  RH  072%=      5-min Rain = 0
KQU1 100624Z 22011KT 13/08 A3007 RMK A01 T01250077  RH  073%=      5-min Rain = 0
KQU1 100625Z 22010KT 12/08 A3007 RMK A01 T01240077  RH  073%=      5-min Rain = 0
KQU1 100626Z 22010KT 12/08 A3007 RMK A01 T01240077  RH  073%=      5-min Rain = 0
KQU1 100627Z 22010KT 12/08 A3007 RMK A01 T01240077  RH  073%=      5-min Rain = 0
KQU1 100628Z 21010KT 12/08 A3007 RMK A01 T01230077  RH  073%=      5-min Rain = 0
KQU1 100629Z 22010KT 12/08 A3007 RMK A01 T01230077  RH  073%=      5-min Rain = 0
KQU1 100630Z 22010KT 12/08 A3007 RMK A01 T01230077  RH  073%=      5-min Rain = 0
KQU1 100631Z 22010KT 12/08 A3007 RMK A01 T01230077  RH  073%=      5-min Rain = 0
KQU1 100632Z 22009KT 12/08 A3007 RMK A01 T01230077  RH  073%=      5-min Rain = 0
KQU1 100633Z 22008KT 12/08 A3007 RMK A01 T01220076  RH  073%=      5-min Rain = 0
KQU1 100634Z 21008KT 12/08 A3007 RMK A01 T01220076  RH  074%=      5-min Rain = 0
KQU1 100635Z 20007KT 12/08 A3007 RMK A01 T01210076  RH  074%=      5-min Rain = 0
KQU1 100636Z 21008KT 12/08 A3007 RMK A01 T01200075  RH  074%=      5-min Rain = 0
KQU1 100637Z 21008KT 12/08 A3007 RMK A01 T01200075  RH  074%=      5-min Rain = 0
KQU1 100638Z 21007KT 12/08 A3007 RMK A01 T01200075  RH  074%=      5-min Rain = 0
KQU1 100639Z 22009KT 12/08 A3007 RMK A01 T01190075  RH  074%=      5-min Rain = 0
KQU1 100640Z 22009KT 12/08 A3007 RMK A01 T01190075  RH  074%=      5-min Rain = 0
KQU1 100641Z 22009KT 12/08 A3007 RMK A01 T01190075  RH  074%=      5-min Rain = 0
KQU1 100642Z 22008KT 12/07 A3007 RMK A01 T01190074  RH  074%=      5-min Rain = 0
KQU1 100643Z 22008KT 12/07 A3007 RMK A01 T01180074  RH  074%=      5-min Rain = 0
KQU1 100644Z 22008KT 12/07 A3007 RMK A01 T01170073  RH  074%=      5-min Rain = 0
KQU1 100645Z 22008KT 12/07 A3007 RMK A01 T01170073  RH  075%=      5-min Rain = 0
KQU1 100646Z 22008KT 12/07 A3007 RMK A01 T01160073  RH  075%=      5-min Rain = 0
KQU1 100647Z 22008KT 12/07 A3007 RMK A01 T01160072  RH  075%=      5-min Rain = 0
KQU1 100648Z 22008KT 12/07 A3007 RMK A01 T01150072  RH  075%=      5-min Rain = 0
KQU1 100649Z 22008KT 12/07 A3007 RMK A01 T01150072  RH  075%=      5-min Rain = 0
KQU1 100650Z 22008KT 12/07 A3007 RMK A01 T01150071  RH  075%=      5-min Rain = 0
KQU1 100651Z 22008KT 11/07 A3007 RMK A01 T01140071  RH  075%=      5-min Rain = 0
KQU1 100652Z 22008KT 11/07 A3007 RMK A01 T01140071  RH  075%=      5-min Rain = 0
KQU1 100653Z 22008KT 11/07 A3007 RMK A01 T01140070  RH  075%=      5-min Rain = 0
KQU1 100654Z 22008KT 11/07 A3007 RMK A01 T01140070  RH  074%=      5-min Rain = 0
KQU1 100655Z 22007KT 11/07 A3007 RMK A01 T01130068  RH  074%=      5-min Rain = 0
KQU1 100656Z 22007KT 11/07 A3007 RMK A01 T01110068  RH  075%=      5-min Rain = 0
KQU1 100657Z 22007KT 11/07 A3007 RMK A01 T01100068  RH  075%=      5-min Rain = 0
KQU1 100658Z 22007KT 11/07 A3007 RMK A01 T01100068  RH  075%=      5-min Rain = 0
KQU1 100659Z 22008KT 11/07 A3007 RMK A01 T01100067  RH  075%=      5-min Rain = 0
KQU1 100700Z 22007KT 11/07 A3007 RMK A01 T01100067  RH  075%=      5-min Rain = 0
KQU1 100701Z 21007KT 11/07 A3007 RMK A01 T01100067  RH  075%=      5-min Rain = 0
KQU1 100702Z 21007KT 11/07 A3007 RMK A01 T01100067  RH  075%=      5-min Rain = 0
KQU1 100703Z 21007KT 11/07 A3007 RMK A01 T01100066  RH  075%=      5-min Rain = 0
KQU1 100704Z 22007KT 11/07 A3007 RMK A01 T01090066  RH  075%=      5-min Rain = 0
KQU1 100705Z 22007KT 11/07 A3007 RMK A01 T01090065  RH  075%=      5-min Rain = 0
KQU1 100706Z 22006KT 11/07 A3007 RMK A01 T01090065  RH  075%=      5-min Rain = 0
KQU1 100707Z 22006KT 11/07 A3007 RMK A01 T01090065  RH  074%=      5-min Rain = 0
KQU1 100708Z 22006KT 11/07 A3007 RMK A01 T01090065  RH  074%=      5-min Rain = 0
KQU1 100709Z 22006KT 11/07 A3007 RMK A01 T01090065  RH  074%=      5-min Rain = 0
KQU1 100710Z 22006KT 11/07 A3007 RMK A01 T01090065  RH  074%=      5-min Rain = 0
KQU1 100711Z 23006KT 11/07 A3007 RMK A01 T01100065  RH  074%=      5-min Rain = 0
KQU1 100712Z 23006KT 11/07 A3007 RMK A01 T01110065  RH  073%=      5-min Rain = 0
KQU1 100713Z 22007KT 11/07 A3007 RMK A01 T01120065  RH  073%=      5-min Rain = 0
KQU1 100714Z 22008KT 11/07 A3007 RMK A01 T01140066  RH  072%=      5-min Rain = 0
KQU1 100715Z 22008KT 12/07 A3006 RMK A01 T01170066  RH  071%=      5-min Rain = 0
KQU1 100716Z 22009KT 12/07 A3006 RMK A01 T01200066  RH  070%=      5-min Rain = 0
KQU1 100717Z 23008KT 12/07 A3006 RMK A01 T01220066  RH  069%=      5-min Rain = 0
KQU1 100718Z 23009KT 12/07 A3006 RMK A01 T01240066  RH  068%=      5-min Rain = 0
KQU1 100719Z 23007KT 13/07 A3006 RMK A01 T01260066  RH  067%=      5-min Rain = 0
KQU1 100720Z 23010KT 13/07 A3006 RMK A01 T01260065  RH  066%=      5-min Rain = 0
KQU1 100721Z 23007KT 13/07 A3006 RMK A01 T01270065  RH  066%=      5-min Rain = 0
KQU1 100722Z 23007KT 13/06 A3006 RMK A01 T01270064  RH  066%=      5-min Rain = 0
KQU1 100723Z 23007KT 13/06 A3006 RMK A01 T01270064  RH  066%=      5-min Rain = 0
KQU1 100724Z 23006KT 13/06 A3006 RMK A01 T01270064  RH  066%=      5-min Rain = 0
KQU1 100725Z 23007KT 13/06 A3006 RMK A01 T01260064  RH  066%=      5-min Rain = 0
KQU1 100726Z 23008KT 13/06 A3006 RMK A01 T01260064  RH  066%=      5-min Rain = 0
KQU1 100727Z 23008KT 13/06 A3006 RMK A01 T01260064  RH  066%=      5-min Rain = 0
KQU1 100728Z 23007KT 13/06 A3006 RMK A01 T01270064  RH  066%=      5-min Rain = 0
KQU1 100729Z 23007KT 13/06 A3006 RMK A01 T01260064  RH  066%=      5-min Rain = 0
KQU1 100730Z 23009KT 13/06 A3006 RMK A01 T01260064  RH  066%=      5-min Rain = 0
KQU1 100731Z 24009KT 13/06 A3006 RMK A01 T01260064  RH  066%=      5-min Rain = 0
KQU1 100732Z 23008KT 13/07 A3006 RMK A01 T01260065  RH  066%=      5-min Rain = 0
KQU1 100733Z 23009KT 13/07 A3006 RMK A01 T01260065  RH  066%=      5-min Rain = 0
KQU1 100734Z 23009KT 13/07 A3006 RMK A01 T01260065  RH  066%=      5-min Rain = 0
KQU1 100735Z 23008KT 13/07 A3006 RMK A01 T01260065  RH  066%=      5-min Rain = 0
KQU1 100736Z 23010KT 13/07 A3005 RMK A01 T01260065  RH  067%=      5-min Rain = 0
KQU1 100737Z 23010KT 13/07 A3005 RMK A01 T01260066  RH  066%=      5-min Rain = 0
KQU1 100738Z 23010KT 13/07 A3005 RMK A01 T01270066  RH  066%=      5-min Rain = 0
KQU1 100739Z 23008KT 13/07 A3005 RMK A01 T01270065  RH  066%=      5-min Rain = 0
KQU1 100740Z 23009KT 13/07 A3005 RMK A01 T01260065  RH  066%=      5-min Rain = 0
KQU1 100741Z 23008KT 13/07 A3005 RMK A01 T01260065  RH  066%=      5-min Rain = 0
KQU1 100742Z 23009KT 13/07 A3005 RMK A01 T01250065  RH  066%=      5-min Rain = 0
KQU1 100743Z 22009KT 13/07 A3005 RMK A01 T01250065  RH  067%=      5-min Rain = 0
KQU1 100744Z 22008KT 13/07 A3005 RMK A01 T01260065  RH  066%=      5-min Rain = 0
KQU1 100745Z 22007KT 13/06 A3005 RMK A01 T01250064  RH  066%=      5-min Rain = 0
KQU1 100746Z 21006KT 13/06 A3005 RMK A01 T01250064  RH  066%=      5-min Rain = 0
KQU1 100747Z 22006KT 12/06 A3005 RMK A01 T01240064  RH  067%=      5-min Rain = 0
KQU1 100748Z 22005KT 12/06 A3005 RMK A01 T01230063  RH  067%=      5-min Rain = 0
KQU1 100749Z 22004KT 12/06 A3005 RMK A01 T01230063  RH  067%=      5-min Rain = 0
KQU1 100750Z 21004KT 12/06 A3005 RMK A01 T01220063  RH  067%=      5-min Rain = 0
KQU1 100751Z 22003KT 12/06 A3005 RMK A01 T01220063  RH  067%=      5-min Rain = 0
KQU1 100752Z 20003KT 12/06 A3005 RMK A01 T01210063  RH  067%=      5-min Rain = 0
KQU1 100753Z 20002KT 12/06 A3005 RMK A01 T01210062  RH  067%=      5-min Rain = 0
KQU1 100754Z 21003KT 12/06 A3005 RMK A01 T01200062  RH  067%=      5-min Rain = 0
KQU1 100755Z 20002KT 12/06 A3005 RMK A01 T01190061  RH  068%=      5-min Rain = 0
KQU1 100756Z 19003KT 12/06 A3005 RMK A01 T01180061  RH  068%=      5-min Rain = 0
KQU1 100757Z 17002KT 12/06 A3005 RMK A01 T01170060  RH  068%=      5-min Rain = 0
KQU1 100758Z 16002KT 12/06 A3005 RMK A01 T01150058  RH  068%=      5-min Rain = 0
KQU1 100759Z 16003KT 11/06 A3005 RMK A01 T01130056  RH  068%=      5-min Rain = 0
KQU1 100800Z 15004KT 11/05 A3005 RMK A01 T01100054  RH  069%=      5-min Rain = 0
KQU1 100801Z 14004KT 11/05 A3005 RMK A01 T01070053  RH  069%=      5-min Rain = 0
KQU1 100802Z 14005KT 10/05 A3005 RMK A01 T01040052  RH  070%=      5-min Rain = 0
KQU1 100803Z 14005KT 10/05 A3005 RMK A01 T01020052  RH  071%=      5-min Rain = 0
KQU1 100804Z 14005KT 10/05 A3005 RMK A01 T01000051  RH  072%=      5-min Rain = 0
KQU1 100805Z 14005KT 10/05 A3005 RMK A01 T00970051  RH  073%=      5-min Rain = 0
KQU1 100806Z 13005KT 10/05 A3005 RMK A01 T00950050  RH  074%=      5-min Rain = 0
KQU1 100807Z 14006KT 09/05 A3005 RMK A01 T00920049  RH  074%=      5-min Rain = 0
KQU1 100808Z 14006KT 09/05 A3005 RMK A01 T00900048  RH  075%=      5-min Rain = 0
KQU1 100809Z 14006KT 09/05 A3005 RMK A01 T00880048  RH  076%=      5-min Rain = 0
KQU1 100810Z 13005KT 09/05 A3005 RMK A01 T00860048  RH  077%=      5-min Rain = 0
KQU1 100811Z 13005KT 09/05 A3005 RMK A01 T00850048  RH  078%=      5-min Rain = 0
KQU1 100812Z 13004KT 08/05 A3005 RMK A01 T00840048  RH  078%=      5-min Rain = 0
KQU1 100813Z 14003KT 08/05 A3005 RMK A01 T00830050  RH  079%=      5-min Rain = 0
KQU1 100814Z 14005KT 08/05 A3005 RMK A01 T00840051  RH  080%=      5-min Rain = 0
KQU1 100815Z 14005KT 08/05 A3005 RMK A01 T00840052  RH  080%=      5-min Rain = 0
KQU1 100816Z 13004KT 09/05 A3005 RMK A01 T00850052  RH  080%=      5-min Rain = 0
KQU1 100817Z 14006KT 09/05 A3004 RMK A01 T00850052  RH  080%=      5-min Rain = 0
KQU1 100818Z 14007KT 08/05 A3004 RMK A01 T00840052  RH  080%=      5-min Rain = 0
KQU1 100819Z 14007KT 08/05 A3004 RMK A01 T00840053  RH  081%=      5-min Rain = 0
KQU1 100820Z 14006KT 08/05 A3004 RMK A01 T00840053  RH  081%=      5-min Rain = 0
KQU1 100821Z 14006KT 08/05 A3004 RMK A01 T00840053  RH  081%=      5-min Rain = 0
KQU1 100822Z 14004KT 08/05 A3004 RMK A01 T00830053  RH  081%=      5-min Rain = 0
KQU1 100823Z 15005KT 08/05 A3004 RMK A01 T00830054  RH  082%=      5-min Rain = 0
KQU1 100824Z 16007KT 08/05 A3004 RMK A01 T00830054  RH  082%=      5-min Rain = 0
KQU1 100825Z 15006KT 08/06 A3004 RMK A01 T00840055  RH  082%=      5-min Rain = 0
KQU1 100826Z 17005KT 08/06 A3004 RMK A01 T00840055  RH  082%=      5-min Rain = 0
KQU1 100827Z 17004KT 08/05 A3004 RMK A01 T00840054  RH  082%=      5-min Rain = 0
KQU1 100828Z 17005KT 08/05 A3004 RMK A01 T00840054  RH  082%=      5-min Rain = 0
KQU1 100829Z 17005KT 08/05 A3004 RMK A01 T00840054  RH  082%=      5-min Rain = 0
KQU1 100830Z 20007G14KT 08/06 A3004 RMK A01 T00840055  RH  082%=      5-min Rain = 0
KQU1 100831Z 20008G13KT 09/06 A3004 RMK A01 T00860059  RH  083%=      5-min Rain = 0
KQU1 100832Z 21007G14KT 09/06 A3004 RMK A01 T00880059  RH  082%=      5-min Rain = 0
KQU1 100833Z 22010G16KT 09/07 A3004 RMK A01 T00930068  RH  085%=      5-min Rain = 0
KQU1 100834Z 17008KT 10/07 A3004 RMK A01 T01000068  RH  081%=      5-min Rain = 0
KQU1 100835Z 19008G13KT 10/06 A3004 RMK A01 T01000061  RH  077%=      5-min Rain = 0
KQU1 100836Z 20008KT 10/06 A3004 RMK A01 T00980061  RH  078%=      5-min Rain = 0
KQU1 100837Z 19008G13KT 10/07 A3004 RMK A01 T00990065  RH  079%=      5-min Rain = 0
KQU1 100838Z 19007KT 10/06 A3004 RMK A01 T00990060  RH  077%=      5-min Rain = 0
KQU1 100839Z 19006KT 10/06 A3003 RMK A01 T00960058  RH  077%=      5-min Rain = 0
KQU1 100840Z 16005KT 10/06 A3003 RMK A01 T00950058  RH  078%=      5-min Rain = 0
KQU1 100841Z 17005KT 09/06 A3003 RMK A01 T00930055  RH  077%=      5-min Rain = 0
KQU1 100842Z 19004KT 09/05 A3003 RMK A01 T00900054  RH  078%=      5-min Rain = 0
KQU1 100843Z 19007KT 09/06 A3003 RMK A01 T00890055  RH  079%=      5-min Rain = 0
KQU1 100844Z 21013G18KT 09/07 A3003 RMK A01 T00920066  RH  084%=      5-min Rain = 0
KQU1 100845Z 20008KT 10/07 A3003 RMK A01 T01000069  RH  081%=      5-min Rain = 0
KQU1 100846Z 20006KT 10/07 A3003 RMK A01 T01010065  RH  078%=      5-min Rain = 0
KQU1 100847Z 21010G18KT 10/07 A3003 RMK A01 T01020067  RH  079%=      5-min Rain = 0
KQU1 100848Z 21012KT 11/07 A3003 RMK A01 T01070074  RH  080%=      5-min Rain = 0
KQU1 100849Z 22013KT 11/08 A3003 RMK A01 T01130076  RH  078%=      5-min Rain = 0
KQU1 100850Z 21009G15KT 12/08 A3003 RMK A01 T01180076  RH  075%=      5-min Rain = 0
KQU1 100851Z 22011KT 12/08 A3003 RMK A01 T01210076  RH  074%=      5-min Rain = 0
KQU1 100852Z 22013KT 12/08 A3002 RMK A01 T01230077  RH  073%=      5-min Rain = 0
KQU1 100853Z 22012KT 12/08 A3002 RMK A01 T01240077  RH  073%=      5-min Rain = 0
KQU1 100854Z 22011KT 13/08 A3002 RMK A01 T01260077  RH  072%=      5-min Rain = 0
KQU1 100855Z 23012G17KT 13/08 A3002 RMK A01 T01270077  RH  072%=      5-min Rain = 0
KQU1 100856Z 23010KT 13/08 A3002 RMK A01 T01270077  RH  072%=      5-min Rain = 0
KQU1 100857Z 23012KT 13/08 A3002 RMK A01 T01270077  RH  072%=      5-min Rain = 0
KQU1 100858Z 23012G18KT 13/08 A3002 RMK A01 T01280077  RH  072%=      5-min Rain = 0
KQU1 100859Z 23017KT 13/08 A3002 RMK A01 T01280078  RH  072%=      5-min Rain = 0
KQU1 100900Z 24017G23KT 13/08 A3002 RMK A01 T01290078  RH  071%=      5-min Rain = 0
KQU1 100901Z 24014KT 13/08 A3002 RMK A01 T01290078  RH  071%=      5-min Rain = 0
KQU1 100902Z 24017G22KT 13/08 A3002 RMK A01 T01290078  RH  071%=      5-min Rain = 0
KQU1 100903Z 24017KT 13/08 A3002 RMK A01 T01290078  RH  071%=      5-min Rain = 0
KQU1 100904Z 24018G24KT 13/08 A3002 RMK A01 T01290078  RH  071%=      5-min Rain = 0
KQU1 100905Z 24018KT 13/08 A3002 RMK A01 T01290078  RH  071%=      5-min Rain = 0
KQU1 100906Z 24019KT 13/08 A3002 RMK A01 T01300078  RH  071%=      5-min Rain = 0
KQU1 100907Z 24016G21KT 13/08 A3002 RMK A01 T01300078  RH  071%=      5-min Rain = 0
KQU1 100908Z 25016KT 13/08 A3002 RMK A01 T01300078  RH  070%=      5-min Rain = 0
KQU1 100909Z 25015G20KT 13/08 A3002 RMK A01 T01300077  RH  070%=      5-min Rain = 0
KQU1 100910Z 25015KT 13/08 A3002 RMK A01 T01300077  RH  070%=      5-min Rain = 0
KQU1 100911Z 25016KT 13/08 A3002 RMK A01 T01300076  RH  070%=      5-min Rain = 0
KQU1 100912Z 24017KT 13/08 A3002 RMK A01 T01300076  RH  070%=      5-min Rain = 0
KQU1 100913Z 24015KT 13/08 A3002 RMK A01 T01290076  RH  070%=      5-min Rain = 0
KQU1 100914Z 24019KT 13/08 A3002 RMK A01 T01280077  RH  071%=      5-min Rain = 0
KQU1 100915Z 24016KT 13/08 A3002 RMK A01 T01290077  RH  071%=      5-min Rain = 0
KQU1 100916Z 25017KT 13/08 A3002 RMK A01 T01280076  RH  071%=      5-min Rain = 0
KQU1 100917Z 24017KT 13/08 A3002 RMK A01 T01280076  RH  071%=      5-min Rain = 0
KQU1 100918Z 25017G24KT 13/08 A3001 RMK A01 T01280076  RH  070%=      5-min Rain = 0
KQU1 100919Z 24018KT 13/08 A3001 RMK A01 T01280075  RH  070%=      5-min Rain = 0
KQU1 100920Z 24018G24KT 13/08 A3001 RMK A01 T01280075  RH  070%=      5-min Rain = 0
KQU1 100921Z 24018G23KT 13/08 A3001 RMK A01 T01290075  RH  070%=      5-min Rain = 0
KQU1 100922Z 25019KT 13/07 A3001 RMK A01 T01290074  RH  069%=      5-min Rain = 0
KQU1 100923Z 25017G24KT 13/07 A3001 RMK A01 T01290074  RH  069%=      5-min Rain = 0
KQU1 100924Z 25018G23KT 13/07 A3001 RMK A01 T01290074  RH  069%=      5-min Rain = 0
KQU1 100925Z 24021KT 13/07 A3001 RMK A01 T01290074  RH  069%=      5-min Rain = 0
KQU1 100926Z 24019KT 13/07 A3001 RMK A01 T01290073  RH  069%=      5-min Rain = 0
KQU1 100927Z 25017KT 13/07 A3001 RMK A01 T01290072  RH  068%=      5-min Rain = 0
KQU1 100928Z 25019G24KT 13/07 A3001 RMK A01 T01290072  RH  068%=      5-min Rain = 0
KQU1 100929Z 25019G24KT 13/07 A3001 RMK A01 T01290072  RH  068%=      5-min Rain = 0
KQU1 100930Z 25020KT 13/07 A3001 RMK A01 T01290072  RH  068%=      5-min Rain = 0
KQU1 100931Z 24020G26KT 13/07 A3001 RMK A01 T01300073  RH  068%=      5-min Rain = 0
KQU1 100932Z 25017KT 13/07 A3001 RMK A01 T01310073  RH  068%=      5-min Rain = 0
KQU1 100933Z 25022KT 13/07 A3001 RMK A01 T01310074  RH  068%=      5-min Rain = 0
KQU1 100934Z 25020KT 13/07 A3001 RMK A01 T01310074  RH  068%=      5-min Rain = 0
KQU1 100935Z 25020G28KT 13/07 A3001 RMK A01 T01310074  RH  068%=      5-min Rain = 0
KQU1 100936Z 25020KT 13/07 A3001 RMK A01 T01310074  RH  068%=      5-min Rain = 0
KQU1 100937Z 25019KT 13/07 A3001 RMK A01 T01310073  RH  068%=      5-min Rain = 0
KQU1 100938Z 25022G27KT 13/07 A3001 RMK A01 T01310072  RH  067%=      5-min Rain = 0
KQU1 100939Z 25020KT 13/07 A3001 RMK A01 T01320071  RH  067%=      5-min Rain = 0
KQU1 100940Z 25020KT 13/07 A3001 RMK A01 T01310071  RH  067%=      5-min Rain = 0
KQU1 100941Z 25020G26KT 13/07 A3001 RMK A01 T01320072  RH  067%=      5-min Rain = 0
KQU1 100942Z 25022KT 13/07 A3001 RMK A01 T01320073  RH  067%=      5-min Rain = 0
KQU1 100943Z 25020KT 13/07 A30 RMK A01 T01330073  RH  067%=      5-min Rain = 0
KQU1 100944Z 25022G28KT 13/07 A30 RMK A01 T01330074  RH  067%=      5-min Rain = 0
KQU1 100945Z 25020KT 13/07 A30 RMK A01 T01330074  RH  067%=      5-min Rain = 0
KQU1 100946Z 25019KT 13/08 A30 RMK A01 T01330075  RH  068%=      5-min Rain = 0
KQU1 100947Z 24024G29KT 13/08 A30 RMK A01 T01330076  RH  068%=      5-min Rain = 0
KQU1 100948Z 25020G25KT 14/08 A30 RMK A01 T01350076  RH  068%=      5-min Rain = 0
KQU1 100949Z 25022KT 14/08 A30 RMK A01 T01350076  RH  068%=      5-min Rain = 0
KQU1 100950Z 25021G26KT 14/08 A30 RMK A01 T01350077  RH  068%=      5-min Rain = 0
KQU1 100951Z 25021G26KT 14/08 A30 RMK A01 T01360077  RH  068%=      5-min Rain = 0
KQU1 100952Z 25020KT 14/08 A30 RMK A01 T01360077  RH  068%=      5-min Rain = 0
KQU1 100953Z 25020G25KT 14/08 A30 RMK A01 T01360078  RH  068%=      5-min Rain = 0
KQU1 100954Z 25020G25KT 14/08 A30 RMK A01 T01360078  RH  068%=      5-min Rain = 0
KQU1 100955Z 24020G25KT 14/08 A30 RMK A01 T01360078  RH  068%=      5-min Rain = 0
KQU1 100956Z 25022KT 14/08 A30 RMK A01 T01360078  RH  068%=      5-min Rain = 0
KQU1 100957Z 24019KT 14/08 A30 RMK A01 T01370078  RH  068%=      5-min Rain = 0
KQU1 100958Z 24018KT 14/08 A30 RMK A01 T01360077  RH  068%=      5-min Rain = 0
KQU1 100959Z 25020G26KT 14/08 A30 RMK A01 T01360077  RH  068%=      5-min Rain = 0
KQU1 101000Z 25021G28KT 14/08 A30 RMK A01 T01370078  RH  068%=      5-min Rain = 0
KQU1 101001Z 25020KT 14/08 A30 RMK A01 T01370078  RH  067%=      5-min Rain = 0
KQU1 101002Z 24020G25KT 14/08 A30 RMK A01 T01370078  RH  067%=      5-min Rain = 0
KQU1 101003Z 25020KT 14/08 A30 RMK A01 T01370078  RH  067%=      5-min Rain = 0
KQU1 101004Z 25018G23KT 14/08 A30 RMK A01 T01370077  RH  067%=      5-min Rain = 0
KQU1 101005Z 25020KT 14/08 A30 RMK A01 T01360077  RH  067%=      5-min Rain = 0
KQU1 101006Z 25021KT 14/08 A30 RMK A01 T01360077  RH  067%=      5-min Rain = 0
KQU1 101007Z 25022KT 14/08 A2999 RMK A01 T01360077  RH  067%=      5-min Rain = 0
KQU1 101008Z 25022KT 14/08 A2999 RMK A01 T01360076  RH  067%=      5-min Rain = 0
KQU1 101009Z 25020G25KT 14/08 A2999 RMK A01 T01350076  RH  067%=      5-min Rain = 0
KQU1 101010Z 25020G25KT 13/08 A2999 RMK A01 T01340075  RH  068%=      5-min Rain = 0
KQU1 101011Z 25020G25KT 13/08 A2999 RMK A01 T01330075  RH  068%=      5-min Rain = 0
KQU1 101012Z 25022KT 13/07 A2999 RMK A01 T01320074  RH  068%=      5-min Rain = 0
KQU1 101013Z 25023KT 13/08 A2999 RMK A01 T01320075  RH  068%=      5-min Rain = 0
KQU1 101014Z 25022G28KT 13/08 A2999 RMK A01 T01320075  RH  068%=      5-min Rain = 0
KQU1 101015Z 25020G25KT 13/08 A2999 RMK A01 T01320075  RH  068%=      5-min Rain = 0
KQU1 101016Z 25020G25KT 13/08 A2999 RMK A01 T01320075  RH  069%=      5-min Rain = 0
KQU1 101017Z 25021G27KT 13/08 A2999 RMK A01 T01310075  RH  069%=      5-min Rain = 0
KQU1 101018Z 25022G28KT 13/08 A2999 RMK A01 T01320076  RH  069%=      5-min Rain = 0
KQU1 101019Z 25024KT 13/08 A2999 RMK A01 T01330077  RH  069%=      5-min Rain = 0
KQU1 101020Z 25021G28KT 13/08 A2999 RMK A01 T01330076  RH  068%=      5-min Rain = 0
KQU1 101021Z 25019G25KT 13/08 A2999 RMK A01 T01330076  RH  068%=      5-min Rain = 0
KQU1 101022Z 25021G26KT 13/08 A2999 RMK A01 T01340077  RH  069%=      5-min Rain = 0
KQU1 101023Z 25019G24KT 13/08 A2999 RMK A01 T01340077  RH  068%=      5-min Rain = 0
KQU1 101024Z 25020G26KT 13/08 A2999 RMK A01 T01340077  RH  068%=      5-min Rain = 0
KQU1 101025Z 25018G23KT 13/08 A2999 RMK A01 T01340077  RH  068%=      5-min Rain = 0
KQU1 101026Z 25020KT 13/08 A2999 RMK A01 T01340077  RH  068%=      5-min Rain = 0
KQU1 101027Z 25019G24KT 13/08 A2999 RMK A01 T01340077  RH  068%=      5-min Rain = 0
KQU1 101028Z 25022KT 13/08 A2999 RMK A01 T01340078  RH  069%=      5-min Rain = 0
KQU1 101029Z 25021G27KT 14/08 A2999 RMK A01 T01350078  RH  068%=      5-min Rain = 0
KQU1 101030Z 26019G25KT 14/08 A2999 RMK A01 T01350077  RH  068%=      5-min Rain = 0
KQU1 101031Z 26022KT 14/08 A2999 RMK A01 T01350077  RH  068%=      5-min Rain = 0
KQU1 101032Z 26021G26KT 14/08 A2999 RMK A01 T01350077  RH  068%=      5-min Rain = 0
KQU1 101033Z 25018KT 14/08 A2999 RMK A01 T01350077  RH  068%=      5-min Rain = 0
KQU1 101034Z 25019G24KT 14/08 A2999 RMK A01 T01350077  RH  068%=      5-min Rain = 0
KQU1 101035Z 25018G24KT 14/08 A2999 RMK A01 T01350077  RH  068%=      5-min Rain = 0
KQU1 101036Z 26020G26KT 14/08 A2999 RMK A01 T01350077  RH  068%=      5-min Rain = 0
KQU1 101037Z 25021KT 14/08 A2999 RMK A01 T01350077  RH  068%=      5-min Rain = 0
KQU1 101038Z 26020KT 14/08 A2999 RMK A01 T01350076  RH  068%=      5-min Rain = 0
KQU1 101039Z 25023G28KT 14/08 A2999 RMK A01 T01350077  RH  068%=      5-min Rain = 0
KQU1 101040Z 25021KT 14/08 A2999 RMK A01 T01350076  RH  068%=      5-min Rain = 0
KQU1 101041Z 25023KT 13/08 A2999 RMK A01 T01340077  RH  068%=      5-min Rain = 0
KQU1 101042Z 26023G29KT 13/08 A2999 RMK A01 T01340076  RH  068%=      5-min Rain = 0
KQU1 101043Z 25022KT 13/08 A2999 RMK A01 T01340076  RH  068%=      5-min Rain = 0
KQU1 101044Z 25020KT 13/08 A2999 RMK A01 T01330075  RH  068%=      5-min Rain = 0
KQU1 101045Z 25018G23KT 13/08 A2999 RMK A01 T01330075  RH  068%=      5-min Rain = 0
KQU1 101046Z 26022KT 13/08 A2999 RMK A01 T01320075  RH  068%=      5-min Rain = 0
KQU1 101047Z 25019G24KT 13/07 A2999 RMK A01 T01320074  RH  068%=      5-min Rain = 0
KQU1 101048Z 26019G25KT 13/07 A2999 RMK A01 T01320074  RH  068%=      5-min Rain = 0
KQU1 101049Z 26021KT 13/08 A2998 RMK A01 T01320075  RH  068%=      5-min Rain = 0
KQU1 101050Z 25021G27KT 13/08 A2998 RMK A01 T01330076  RH  069%=      5-min Rain = 0
KQU1 101051Z 26019KT 13/08 A2999 RMK A01 T01330076  RH  068%=      5-min Rain = 0
KQU1 101052Z 25020KT 13/08 A2999 RMK A01 T01330075  RH  068%=      5-min Rain = 0
KQU1 101053Z 25021KT 13/07 A2999 RMK A01 T01320074  RH  068%=      5-min Rain = 0
KQU1 101054Z 26021KT 13/07 A2999 RMK A01 T01320074  RH  068%=      5-min Rain = 0
KQU1 101055Z 26024KT 13/08 A2998 RMK A01 T01330075  RH  068%=      5-min Rain = 0
KQU1 101056Z 26022KT 13/07 A2998 RMK A01 T01320074  RH  068%=      5-min Rain = 0
KQU1 101057Z 25021KT 13/07 A2998 RMK A01 T01320074  RH  068%=      5-min Rain = 0
KQU1 101058Z 26023KT 13/08 A2998 RMK A01 T01320075  RH  068%=      5-min Rain = 0
KQU1 101059Z 26022KT 13/08 A2999 RMK A01 T01320075  RH  068%=      5-min Rain = 0
KQU1 101100Z 26022KT 13/08 A2999 RMK A01 T01310075  RH  069%=      5-min Rain = 0
KQU1 101101Z 25021KT 13/08 A2999 RMK A01 T01310075  RH  069%=      5-min Rain = 0
KQU1 101102Z 26020KT 13/08 A2999 RMK A01 T01310075  RH  069%=      5-min Rain = 0
KQU1 101103Z 26018G24KT 13/08 A2999 RMK A01 T01310075  RH  069%=      5-min Rain = 0
KQU1 101104Z 26018G23KT 13/07 A2999 RMK A01 T01300074  RH  069%=      5-min Rain = 0
KQU1 101105Z 26020KT 13/07 A2999 RMK A01 T01300074  RH  069%=      5-min Rain = 0
KQU1 101106Z 26019KT 13/08 A2999 RMK A01 T01300075  RH  069%=      5-min Rain = 0
KQU1 101107Z 26019KT 13/08 A2999 RMK A01 T01300075  RH  069%=      5-min Rain = 0
KQU1 101108Z 26018G23KT 13/08 A2999 RMK A01 T01300075  RH  069%=      5-min Rain = 0
KQU1 101109Z 26018KT 13/08 A2999 RMK A01 T01310077  RH  069%=      5-min Rain = 0
KQU1 101110Z 26018KT 13/08 A2999 RMK A01 T01320077  RH  069%=      5-min Rain = 0
KQU1 101111Z 25019G25KT 13/08 A2999 RMK A01 T01320077  RH  069%=      5-min Rain = 0
KQU1 101112Z 25020KT 13/08 A2999 RMK A01 T01330078  RH  069%=      5-min Rain = 0
KQU1 101113Z 25019KT 13/08 A2999 RMK A01 T01340079  RH  069%=      5-min Rain = 0
KQU1 101114Z 25018KT 13/08 A2999 RMK A01 T01340079  RH  069%=      5-min Rain = 0
KQU1 101115Z 25019KT 13/08 A2999 RMK A01 T01340079  RH  069%=      5-min Rain = 0
KQU1 101116Z 25019G24KT 13/08 A2999 RMK A01 T01340078  RH  069%=      5-min Rain = 0
KQU1 101117Z 25018G23KT 13/08 A2999 RMK A01 T01340078  RH  069%=      5-min Rain = 0
KQU1 101118Z 25018KT 13/08 A2999 RMK A01 T01330078  RH  069%=      5-min Rain = 0
KQU1 101119Z 25017G22KT 13/08 A2999 RMK A01 T01330078  RH  069%=      5-min Rain = 0
KQU1 101120Z 25019KT 13/08 A2999 RMK A01 T01320078  RH  070%=      5-min Rain = 0
KQU1 101121Z 25020KT 13/08 A2999 RMK A01 T01320078  RH  070%=      5-min Rain = 0
KQU1 101122Z 25019KT 13/08 A2999 RMK A01 T01320078  RH  070%=      5-min Rain = 0
KQU1 101123Z 24017G23KT 13/08 A2999 RMK A01 T01310078  RH  070%=      5-min Rain = 0
KQU1 101124Z 25014G19KT 13/08 A2999 RMK A01 T01300077  RH  070%=      5-min Rain = 0
KQU1 101125Z 24016KT 13/08 A2999 RMK A01 T01300077  RH  070%=      5-min Rain = 0
KQU1 101126Z 25018KT 13/08 A2999 RMK A01 T01290078  RH  071%=      5-min Rain = 0
KQU1 101127Z 24017KT 13/08 A2999 RMK A01 T01290077  RH  071%=      5-min Rain = 0
KQU1 101128Z 24016KT 13/08 A2999 RMK A01 T01290077  RH  071%=      5-min Rain = 0
KQU1 101129Z 24017KT 13/08 A2999 RMK A01 T01290077  RH  071%=      5-min Rain = 0
KQU1 101130Z 24017KT 13/08 A2999 RMK A01 T01280077  RH  071%=      5-min Rain = 0
KQU1 101131Z 25014G20KT 13/08 A2999 RMK A01 T01280077  RH  071%=      5-min Rain = 0
KQU1 101132Z 24018KT 13/08 A2999 RMK A01 T01280078  RH  072%=      5-min Rain = 0
KQU1 101133Z 24018KT 13/08 A2999 RMK A01 T01280078  RH  072%=      5-min Rain = 0
KQU1 101134Z 25018G23KT 13/08 A2999 RMK A01 T01280079  RH  072%=      5-min Rain = 0
KQU1 101135Z 24018KT 13/08 A2999 RMK A01 T01280079  RH  072%=      5-min Rain = 0
KQU1 101136Z 24019G24KT 13/08 A2999 RMK A01 T01290079  RH  072%=      5-min Rain = 0
KQU1 101137Z 24017KT 13/08 A2999 RMK A01 T01280079  RH  072%=      5-min Rain = 0
KQU1 101138Z 24018G23KT 13/08 A2999 RMK A01 T01280079  RH  072%=      5-min Rain = 0
KQU1 101139Z 24019KT 13/08 A2999 RMK A01 T01280080  RH  072%=      5-min Rain = 0
KQU1 101140Z 24019G24KT 13/08 A2999 RMK A01 T01280080  RH  072%=      5-min Rain = 0
KQU1 101141Z 24016KT 13/08 A2999 RMK A01 T01280079  RH  072%=      5-min Rain = 0
KQU1 101142Z 24015G21KT 13/08 A2999 RMK A01 T01280080  RH  072%=      5-min Rain = 0
KQU1 101143Z 24015G21KT 13/08 A2999 RMK A01 T01280080  RH  073%=      5-min Rain = 0
KQU1 101144Z 24017KT 13/08 A2999 RMK A01 T01280081  RH  073%=      5-min Rain = 0
KQU1 101145Z 24014KT 13/08 A2999 RMK A01 T01280081  RH  073%=      5-min Rain = 0
KQU1 101146Z 24015KT 13/08 A2999 RMK A01 T01280081  RH  073%=      5-min Rain = 0
KQU1 101147Z 24015G20KT 13/08 A2999 RMK A01 T01290082  RH  073%=      5-min Rain = 0
KQU1 101148Z 24014KT 13/08 A2999 RMK A01 T01280081  RH  073%=      5-min Rain = 0
KQU1 101149Z 23015G20KT 13/08 A2999 RMK A01 T01280082  RH  073%=      5-min Rain = 0
KQU1 101150Z 23014G19KT 13/08 A2999 RMK A01 T01290082  RH  073%=      5-min Rain = 0
KQU1 101151Z 23016KT 13/08 A2999 RMK A01 T01290082  RH  073%=      5-min Rain = 0
KQU1 101152Z 23013KT 13/08 A2999 RMK A01 T01300082  RH  073%=      5-min Rain = 0
KQU1 101153Z 23017KT 13/08 A2999 RMK A01 T01290082  RH  073%=      5-min Rain = 0
KQU1 101154Z 23018KT 13/08 A2999 RMK A01 T01300082  RH  073%=      5-min Rain = 0
KQU1 101155Z 23013G18KT 13/08 A2999 RMK A01 T01300082  RH  073%=      5-min Rain = 0
KQU1 101156Z 23016KT 13/08 A2999 RMK A01 T01300082  RH  073%=      5-min Rain = 0
KQU1 101157Z 23019KT 13/08 A2999 RMK A01 T01300083  RH  073%=      5-min Rain = 0
KQU1 101158Z 23016KT 13/08 A2999 RMK A01 T01300082  RH  073%=      5-min Rain = 0
KQU1 101159Z 23019KT 13/08 A2999 RMK A01 T01310083  RH  073%=      5-min Rain = 0
KQU1 101200Z 23020KT 13/08 A2999 RMK A01 T01310083  RH  073%=      5-min Rain = 0
KQU1 101201Z 23018KT 13/08 A2999 RMK A01 T01320083  RH  072%=      5-min Rain = 0
KQU1 101202Z 23016G21KT 13/08 A2999 RMK A01 T01310083  RH  072%=      5-min Rain = 0
KQU1 101203Z 23017KT 13/08 A2999 RMK A01 T01310083  RH  073%=      5-min Rain = 0
KQU1 101204Z 23016KT 13/08 A2999 RMK A01 T01310084  RH  073%=      5-min Rain = 0
KQU1 101205Z 23016KT 13/08 A2999 RMK A01 T01310083  RH  073%=      5-min Rain = 0
KQU1 101206Z 23018KT 13/08 A2999 RMK A01 T01310084  RH  073%=      5-min Rain = 0
KQU1 101207Z 23019KT 13/08 A2999 RMK A01 T01310084  RH  073%=      5-min Rain = 0
KQU1 101208Z 23018KT 13/08 A2999 RMK A01 T01310084  RH  073%=      5-min Rain = 0
KQU1 101209Z 23017G24KT 13/08 A2999 RMK A01 T01320084  RH  073%=      5-min Rain = 0
KQU1 101210Z 23019KT 13/08 A2999 RMK A01 T01320084  RH  073%=      5-min Rain = 0
KQU1 101211Z 23018KT 13/08 A2999 RMK A01 T01310084  RH  073%=      5-min Rain = 0
KQU1 101212Z 23016KT 13/08 A2999 RMK A01 T01310084  RH  073%=      5-min Rain = 0
KQU1 101213Z 23017KT 13/08 A2999 RMK A01 T01310084  RH  073%=      5-min Rain = 0
KQU1 101214Z 23016KT 13/09 A2999 RMK A01 T01310085  RH  073%=      5-min Rain = 0
KQU1 101215Z 23017G23KT 13/09 A2999 RMK A01 T01310085  RH  074%=      5-min Rain = 0
KQU1 101216Z 23017KT 13/09 A2999 RMK A01 T01310085  RH  074%=      5-min Rain = 0
KQU1 101217Z 22016KT 13/09 A2999 RMK A01 T01310086  RH  074%=      5-min Rain = 0
KQU1 101218Z 22017KT 13/09 A2999 RMK A01 T01310085  RH  074%=      5-min Rain = 0
KQU1 101219Z 23018G24KT 13/09 A2999 RMK A01 T01310085  RH  074%=      5-min Rain = 0
KQU1 101220Z 23019KT 13/09 A2998 RMK A01 T01320086  RH  074%=      5-min Rain = 0
KQU1 101221Z 23015KT 13/09 A2999 RMK A01 T01310086  RH  074%=      5-min Rain = 0
KQU1 101222Z 23015KT 13/09 A2999 RMK A01 T01310086  RH  074%=      5-min Rain = 0
KQU1 101223Z 23017G22KT 13/09 A2998 RMK A01 T01310086  RH  074%=      5-min Rain = 0
KQU1 101224Z 23016G21KT 13/09 A2998 RMK A01 T01310087  RH  074%=      5-min Rain = 0
KQU1 101225Z 22015KT 13/09 A2999 RMK A01 T01310087  RH  074%=      5-min Rain = 0
KQU1 101226Z 23015G22KT 13/09 A2999 RMK A01 T01310087  RH  075%=      5-min Rain = 0
KQU1 101227Z 23017KT 13/09 A2999 RMK A01 T01310088  RH  075%=      5-min Rain = 0
KQU1 101228Z 23017G22KT 13/09 A2999 RMK A01 T01320089  RH  075%=      5-min Rain = 0
KQU1 101229Z 23016G22KT 13/09 A2999 RMK A01 T01320089  RH  075%=      5-min Rain = 0
KQU1 101230Z 22017KT 13/09 A2999 RMK A01 T01330090  RH  075%=      5-min Rain = 0
KQU1 101231Z 22014KT 13/09 A2999 RMK A01 T01340089  RH  075%=      5-min Rain = 0
KQU1 101232Z 22014KT 13/09 A2999 RMK A01 T01330089  RH  075%=      5-min Rain = 0
KQU1 101233Z 22015KT 13/09 A2999 RMK A01 T01330090  RH  075%=      5-min Rain = 0
KQU1 101234Z 22017KT 13/09 A2999 RMK A01 T01330090  RH  075%=      5-min Rain = 0
KQU1 101235Z 23019KT 13/09 A2999 RMK A01 T01340091  RH  075%=      5-min Rain = 0
KQU1 101236Z 22015G20KT 13/09 A2999 RMK A01 T01340091  RH  075%=      5-min Rain = 0
KQU1 101237Z 22014KT 13/09 A2999 RMK A01 T01340090  RH  075%=      5-min Rain = 0
KQU1 101238Z 22014KT 13/09 A2999 RMK A01 T01330090  RH  075%=      5-min Rain = 0
KQU1 101239Z 22013KT 13/09 A2999 RMK A01 T01330089  RH  075%=      5-min Rain = 0
KQU1 101240Z 21014KT 13/09 A2999 RMK A01 T01320089  RH  075%=      5-min Rain = 0
KQU1 101241Z 21012KT 13/09 A2999 RMK A01 T01310088  RH  075%=      5-min Rain = 0
KQU1 101242Z 21012KT 13/09 A2999 RMK A01 T01290088  RH  076%=      5-min Rain = 0
KQU1 101243Z 22012KT 13/09 A2999 RMK A01 T01280088  RH  076%=      5-min Rain = 0
KQU1 101244Z 21013KT 13/09 A2999 RMK A01 T01280088  RH  077%=      5-min Rain = 0
KQU1 101245Z 21011KT 13/09 A2999 RMK A01 T01270088  RH  077%=      5-min Rain = 0
KQU1 101246Z 22012KT 13/09 A2999 RMK A01 T01260088  RH  077%=      5-min Rain = 0
KQU1 101247Z 21011KT 13/09 A2999 RMK A01 T01260088  RH  078%=      5-min Rain = 0
KQU1 101248Z 21011KT 13/09 A2999 RMK A01 T01260088  RH  078%=      5-min Rain = 0
KQU1 101249Z 22012G17KT 13/09 A2999 RMK A01 T01260088  RH  078%=      5-min Rain = 0
KQU1 101250Z 22012KT 13/09 A2998 RMK A01 T01260089  RH  078%=      5-min Rain = 0
KQU1 101251Z 22011KT 13/09 A2999 RMK A01 T01270089  RH  078%=      5-min Rain = 0
KQU1 101252Z 22011KT 13/09 A2999 RMK A01 T01260089  RH  078%=      5-min Rain = 0
KQU1 101253Z 22011KT 13/09 A2999 RMK A01 T01270090  RH  078%=      5-min Rain = 0
KQU1 101254Z 22012KT 13/09 A2999 RMK A01 T01270090  RH  078%=      5-min Rain = 0
KQU1 101255Z 23011KT 13/09 A2999 RMK A01 T01270090  RH  078%=      5-min Rain = 0
KQU1 101256Z 22011KT 13/09 A2998 RMK A01 T01270090  RH  078%=      5-min Rain = 0
KQU1 101257Z 22012KT 13/09 A2998 RMK A01 T01270090  RH  078%=      5-min Rain = 0
KQU1 101258Z 22011KT 13/09 A2999 RMK A01 T01270090  RH  078%=      5-min Rain = 0
KQU1 101259Z 22013KT 13/09 A2998 RMK A01 T01270091  RH  079%=      5-min Rain = 0
KQU1 101300Z 22013KT 13/09 A2998 RMK A01 T01270091  RH  078%=      5-min Rain = 0
KQU1 101301Z 22014KT 13/09 A2998 RMK A01 T01280091  RH  078%=      5-min Rain = 0
KQU1 101302Z 22012KT 13/09 A2998 RMK A01 T01280091  RH  078%=      5-min Rain = 0
KQU1 101303Z 22013KT 13/09 A2998 RMK A01 T01280091  RH  078%=      5-min Rain = 0
KQU1 101304Z 22014KT 13/09 A2998 RMK A01 T01280092  RH  078%=      5-min Rain = 0
KQU1 101305Z 22012KT 13/09 A2998 RMK A01 T01280091  RH  078%=      5-min Rain = 0
KQU1 101306Z 22014KT 13/09 A2998 RMK A01 T01280092  RH  079%=      5-min Rain = 0
KQU1 101307Z 22013KT 13/09 A2998 RMK A01 T01290092  RH  078%=      5-min Rain = 0
KQU1 101308Z 22012KT 13/09 A2999 RMK A01 T01290092  RH  078%=      5-min Rain = 0
KQU1 101309Z 22012KT 13/09 A2999 RMK A01 T01280092  RH  078%=      5-min Rain = 0
KQU1 101310Z 22012KT 13/09 A2999 RMK A01 T01280092  RH  079%=      5-min Rain = 0
KQU1 101311Z 22013KT 13/09 A2999 RMK A01 T01290093  RH  079%=      5-min Rain = 0
KQU1 101312Z 22014KT 13/09 A2999 RMK A01 T01290093  RH  079%=      5-min Rain = 0
KQU1 101313Z 22013KT 13/09 A2999 RMK A01 T01290093  RH  079%=      5-min Rain = 0
KQU1 101314Z 22013KT 13/09 A2999 RMK A01 T01290093  RH  078%=      5-min Rain = 0
KQU1 101315Z 22015KT 13/09 A2999 RMK A01 T01290093  RH  079%=      5-min Rain = 0
KQU1 101316Z 22016KT 13/10 A2999 RMK A01 T01300095  RH  079%=      5-min Rain = 0
KQU1 101317Z 23015KT 13/09 A2999 RMK A01 T01310094  RH  078%=      5-min Rain = 0
KQU1 101318Z 23014KT 13/09 A2999 RMK A01 T01310094  RH  078%=      5-min Rain = 0
KQU1 101319Z 23014KT 13/09 A2999 RMK A01 T01310093  RH  078%=      5-min Rain = 0
KQU1 101320Z 23015KT 13/09 A2999 RMK A01 T01310094  RH  078%=      5-min Rain = 0
KQU1 101321Z 23017KT 13/09 A2999 RMK A01 T01310094  RH  078%=      5-min Rain = 0
KQU1 101322Z 23016KT 13/10 A2999 RMK A01 T01320095  RH  078%=      5-min Rain = 0
KQU1 101323Z 23018KT 13/10 A2999 RMK A01 T01330095  RH  078%=      5-min Rain = 0
KQU1 101324Z 23017KT 13/10 A2999 RMK A01 T01330095  RH  078%=      5-min Rain = 0
KQU1 101325Z 23016KT 13/10 A2999 RMK A01 T01340095  RH  077%=      5-min Rain = 0
KQU1 101326Z 23017KT 13/10 A2999 RMK A01 T01340095  RH  077%=      5-min Rain = 0
KQU1 101327Z 23018KT 14/10 A2999 RMK A01 T01350096  RH  077%=      5-min Rain = 0
KQU1 101328Z 23018KT 14/10 A2999 RMK A01 T01350096  RH  077%=      5-min Rain = 0
KQU1 101329Z 23021G27KT 14/10 A2999 RMK A01 T01360097  RH  077%=      5-min Rain = 0
KQU1 101330Z 23017KT 14/10 A2999 RMK A01 T01370096  RH  076%=      5-min Rain = 0
KQU1 101331Z 23019KT 14/10 A2998 RMK A01 T01370096  RH  076%=      5-min Rain = 0
KQU1 101332Z 22017KT 14/10 A2998 RMK A01 T01370096  RH  076%=      5-min Rain = 0
KQU1 101333Z 23016KT 14/10 A2998 RMK A01 T01370095  RH  076%=      5-min Rain = 0
KQU1 101334Z 23018KT 14/10 A2998 RMK A01 T01370096  RH  076%=      5-min Rain = 0
KQU1 101335Z 23019KT 14/10 A2998 RMK A01 T01380096  RH  076%=      5-min Rain = 0
KQU1 101336Z 23017KT 14/10 A2998 RMK A01 T01380096  RH  076%=      5-min Rain = 0
KQU1 101337Z 23019G24KT 14/10 A2998 RMK A01 T01380096  RH  076%=      5-min Rain = 0
KQU1 101338Z 23015KT 14/10 A2998 RMK A01 T01390096  RH  075%=      5-min Rain = 0
KQU1 101339Z 23017G22KT 14/10 A2998 RMK A01 T01390096  RH  075%=      5-min Rain = 0
KQU1 101340Z 23015KT 14/10 A2998 RMK A01 T01380096  RH  075%=      5-min Rain = 0
KQU1 101341Z 23015KT 14/10 A2998 RMK A01 T01380095  RH  075%=      5-min Rain = 0
KQU1 101342Z 23014KT 14/10 A2999 RMK A01 T01380095  RH  076%=      5-min Rain = 0
KQU1 101343Z 22014KT 14/10 A2999 RMK A01 T01380095  RH  076%=      5-min Rain = 0
KQU1 101344Z 22017KT 14/10 A2999 RMK A01 T01380096  RH  076%=      5-min Rain = 0
KQU1 101345Z 22013KT 14/10 A2999 RMK A01 T01380096  RH  075%=      5-min Rain = 0
KQU1 101346Z 22014G19KT 14/10 A2999 RMK A01 T01380096  RH  076%=      5-min Rain = 0
KQU1 101347Z 22016G21KT 14/10 A2999 RMK A01 T01380096  RH  075%=      5-min Rain = 0
KQU1 101348Z 22016KT 14/10 A2999 RMK A01 T01390096  RH  075%=      5-min Rain = 0
KQU1 101349Z 22014KT 14/10 A2999 RMK A01 T01390096  RH  075%=      5-min Rain = 0
KQU1 101350Z 22015KT 14/10 A2999 RMK A01 T01390096  RH  075%=      5-min Rain = 0
KQU1 101351Z 22015KT 14/10 A2999 RMK A01 T01390096  RH  075%=      5-min Rain = 0
KQU1 101352Z 22015KT 14/10 A2999 RMK A01 T01400096  RH  075%=      5-min Rain = 0
KQU1 101353Z 22015KT 14/10 A2999 RMK A01 T01400096  RH  075%=      5-min Rain = 0
KQU1 101354Z 22014KT 14/10 A2999 RMK A01 T01410096  RH  075%=      5-min Rain = 0
KQU1 101355Z 22014KT 14/10 A2999 RMK A01 T01410096  RH  074%=      5-min Rain = 0
KQU1 101356Z 22016KT 14/10 A2999 RMK A01 T01410097  RH  074%=      5-min Rain = 0
KQU1 101357Z 22017G22KT 14/10 A2999 RMK A01 T01420097  RH  074%=      5-min Rain = 0
KQU1 101358Z 22016KT 14/10 A2999 RMK A01 T01430097  RH  074%=      5-min Rain = 0
KQU1 101359Z 22016KT 14/10 A2999 RMK A01 T01430097  RH  074%=      5-min Rain = 0
KQU1 101400Z 22014G20KT 14/10 A2999 RMK A01 T01430097  RH  074%=      5-min Rain = 0
KQU1 101401Z 22015KT 14/10 A2999 RMK A01 T01440098  RH  074%=      5-min Rain = 0
KQU1 101402Z 22016G21KT 14/10 A2999 RMK A01 T01440098  RH  074%=      5-min Rain = 0
KQU1 101403Z 22013KT 15/10 A2999 RMK A01 T01450098  RH  074%=      5-min Rain = 0
KQU1 101404Z 22015KT 15/10 A2999 RMK A01 T01450098  RH  074%=      5-min Rain = 0
KQU1 101405Z 21014KT 15/10 A2999 RMK A01 T01450098  RH  074%=      5-min Rain = 0
KQU1 101406Z 22015KT 15/10 A2999 RMK A01 T01450099  RH  073%=      5-min Rain = 0
KQU1 101407Z 21015KT 15/10 A2999 RMK A01 T01460099  RH  073%=      5-min Rain = 0
KQU1 101408Z 22015KT 15/10 A2999 RMK A01 T01460099  RH  073%=      5-min Rain = 0
KQU1 101409Z 21016G21KT 15/10 A2999 RMK A01 T01470099  RH  073%=      5-min Rain = 0
KQU1 101410Z 21014KT 15/10 A2999 RMK A01 T01470099  RH  073%=      5-min Rain = 0
KQU1 101411Z 21013KT 15/10 A2999 RMK A01 T01470099  RH  073%=      5-min Rain = 0
KQU1 101412Z 21014KT 15/10 A2999 RMK A01 T01470099  RH  073%=      5-min Rain = 0
KQU1 101413Z 22017KT 15/10 A2999 RMK A01 T01480100  RH  073%=      5-min Rain = 0
KQU1 101414Z 21014KT 15/10 A2999 RMK A01 T01480100  RH  073%=      5-min Rain = 0
KQU1 101415Z 21014G20KT 15/10 A2999 RMK A01 T01480100  RH  073%=      5-min Rain = 0
KQU1 101416Z 22016KT 15/10 A2999 RMK A01 T01490100  RH  073%=      5-min Rain = 0
KQU1 101417Z 22014KT 15/10 A2999 RMK A01 T01490101  RH  073%=      5-min Rain = 0
KQU1 101418Z 22014G19KT 15/10 A2999 RMK A01 T01500101  RH  072%=      5-min Rain = 0
KQU1 101419Z 22017KT 15/10 A2999 RMK A01 T01510101  RH  072%=      5-min Rain = 0
KQU1 101420Z 22015KT 15/10 A2999 RMK A01 T01510101  RH  072%=      5-min Rain = 0
KQU1 101421Z 22016KT 15/10 A2999 RMK A01 T01520102  RH  072%=      5-min Rain = 0
KQU1 101422Z 21018KT 15/10 A2999 RMK A01 T01520102  RH  072%=      5-min Rain = 0
KQU1 101423Z 21016KT 15/10 A2999 RMK A01 T01520102  RH  072%=      5-min Rain = 0
KQU1 101424Z 22017KT 15/10 A2999 RMK A01 T01530102  RH  071%=      5-min Rain = 0
KQU1 101425Z 22015G20KT 15/10 A2999 RMK A01 T01530102  RH  071%=      5-min Rain = 0
KQU1 101426Z 21015G20KT 15/10 A2999 RMK A01 T01530102  RH  071%=      5-min Rain = 0
KQU1 101427Z 21016KT 15/10 A2999 RMK A01 T01530102  RH  071%=      5-min Rain = 0
KQU1 101428Z 21015KT 15/10 A2999 RMK A01 T01530101  RH  071%=      5-min Rain = 0
KQU1 101429Z 22017KT 15/10 A2999 RMK A01 T01530102  RH  071%=      5-min Rain = 0
KQU1 101430Z 21013KT 15/10 A2999 RMK A01 T01530102  RH  071%=      5-min Rain = 0
KQU1 101431Z 21013G18KT 15/10 A2999 RMK A01 T01530102  RH  071%=      5-min Rain = 0
KQU1 101432Z 21013KT 15/10 A2999 RMK A01 T01530102  RH  071%=      5-min Rain = 0
KQU1 101433Z 21016KT 15/10 A2999 RMK A01 T01530102  RH  071%=      5-min Rain = 0
KQU1 101434Z 21016KT 15/10 A2999 RMK A01 T01540102  RH  071%=      5-min Rain = 0
KQU1 101435Z 21015KT 15/10 A2999 RMK A01 T01540102  RH  071%=      5-min Rain = 0
KQU1 101436Z 21014KT 15/10 A2999 RMK A01 T01540102  RH  071%=      5-min Rain = 0
KQU1 101437Z 21013KT 15/10 A2999 RMK A01 T01540103  RH  071%=      5-min Rain = 0
KQU1 101438Z 21012KT 16/10 A2999 RMK A01 T01550103  RH  071%=      5-min Rain = 0
KQU1 101439Z 22014KT 16/10 A2999 RMK A01 T01550103  RH  071%=      5-min Rain = 0
KQU1 101440Z 22014KT 16/10 A2999 RMK A01 T01550103  RH  071%=      5-min Rain = 0
KQU1 101441Z 22014G19KT 16/10 A2999 RMK A01 T01560103  RH  071%=      5-min Rain = 0
KQU1 101442Z 22015KT 16/10 A2999 RMK A01 T01560103  RH  071%=      5-min Rain = 0
KQU1 101443Z 22013KT 16/10 A2999 RMK A01 T01560103  RH  070%=      5-min Rain = 0
KQU1 101444Z 21011KT 16/10 A2999 RMK A01 T01560103  RH  071%=      5-min Rain = 0
KQU1 101445Z 21013KT 16/10 A2999 RMK A01 T01570103  RH  070%=      5-min Rain = 0
KQU1 101446Z 21014KT 16/10 A2999 RMK A01 T01570103  RH  070%=      5-min Rain = 0
KQU1 101447Z 21015KT 16/10 A2999 RMK A01 T01570103  RH  070%=      5-min Rain = 0
KQU1 101448Z 21014KT 16/10 A2999 RMK A01 T01570102  RH  070%=      5-min Rain = 0
KQU1 101449Z 21012KT 16/10 A2999 RMK A01 T01570103  RH  070%=      5-min Rain = 0
KQU1 101450Z 21013KT 16/10 A2999 RMK A01 T01580103  RH  070%=      5-min Rain = 0
KQU1 101451Z 21010KT 16/10 A2999 RMK A01 T01580104  RH  070%=      5-min Rain = 0
KQU1 101452Z 21013KT 16/10 A2999 RMK A01 T01580103  RH  070%=      5-min Rain = 0
KQU1 101453Z 21012KT 16/10 A2999 RMK A01 T01590104  RH  070%=      5-min Rain = 0
KQU1 101454Z 22013KT 16/10 A2999 RMK A01 T01590104  RH  070%=      5-min Rain = 0
KQU1 101455Z 21016KT 16/10 A2999 RMK A01 T01600104  RH  069%=      5-min Rain = 0
KQU1 101456Z 22014KT 16/10 A2999 RMK A01 T01600104  RH  069%=      5-min Rain = 0
KQU1 101457Z 22011KT 16/11 A2999 RMK A01 T01600105  RH  069%=      5-min Rain = 0
KQU1 101458Z 21012KT 16/11 A2999 RMK A01 T01610105  RH  069%=      5-min Rain = 0
KQU1 101459Z 21015KT 16/10 A2999 RMK A01 T01610104  RH  069%=      5-min Rain = 0
KQU1 101500Z 21012KT 16/11 A2999 RMK A01 T01610105  RH  069%=      5-min Rain = 0
KQU1 101501Z 21016KT 16/10 A2999 RMK A01 T01620104  RH  069%=      5-min Rain = 0
KQU1 101502Z 21015KT 16/11 A2999 RMK A01 T01620105  RH  069%=      5-min Rain = 0
KQU1 101503Z 21017KT 16/10 A2999 RMK A01 T01620104  RH  068%=      5-min Rain = 0
KQU1 101504Z 21017KT 16/11 A2999 RMK A01 T01620105  RH  069%=      5-min Rain = 0
KQU1 101505Z 21016KT 16/10 A2999 RMK A01 T01630104  RH  068%=      5-min Rain = 0
KQU1 101506Z 21016KT 16/11 A2999 RMK A01 T01630105  RH  068%=      5-min Rain = 0
KQU1 101507Z 21015KT 16/11 A2999 RMK A01 T01640105  RH  068%=      5-min Rain = 0
KQU1 101508Z 21013KT 16/11 A2999 RMK A01 T01640105  RH  068%=      5-min Rain = 0
KQU1 101509Z 21016KT 17/11 A2999 RMK A01 T01650105  RH  068%=      5-min Rain = 0
KQU1 101510Z 22015KT 17/11 A2999 RMK A01 T01650105  RH  068%=      5-min Rain = 0
KQU1 101511Z 21017KT 17/11 A2999 RMK A01 T01650105  RH  068%=      5-min Rain = 0
KQU1 101512Z 22013G18KT 17/11 A2999 RMK A01 T01650106  RH  068%=      5-min Rain = 0
KQU1 101513Z 22014KT 17/11 A2999 RMK A01 T01660106  RH  067%=      5-min Rain = 0
KQU1 101514Z 22016KT 17/11 A2999 RMK A01 T01660105  RH  067%=      5-min Rain = 0
KQU1 101515Z 22015KT 17/11 A2999 RMK A01 T01670106  RH  067%=      5-min Rain = 0
KQU1 101516Z 22012KT 17/11 A2999 RMK A01 T01670107  RH  067%=      5-min Rain = 0
KQU1 101517Z 22014KT 17/11 A2999 RMK A01 T01680106  RH  067%=      5-min Rain = 0
KQU1 101518Z 22014KT 17/11 A2999 RMK A01 T01680107  RH  067%=      5-min Rain = 0
KQU1 101519Z 22014KT 17/11 A2999 RMK A01 T01680106  RH  067%=      5-min Rain = 0
KQU1 101520Z 23016KT 17/11 A2999 RMK A01 T01680106  RH  067%=      5-min Rain = 0
KQU1 101521Z 22018KT 17/11 A2999 RMK A01 T01670105  RH  067%=      5-min Rain = 0
KQU1 101522Z 22017KT 17/11 A2999 RMK A01 T01670106  RH  067%=      5-min Rain = 0
KQU1 101523Z 22015KT 17/11 A2999 RMK A01 T01660106  RH  067%=      5-min Rain = 0
KQU1 101524Z 22016KT 17/11 A2999 RMK A01 T01660106  RH  068%=      5-min Rain = 0
KQU1 101525Z 22017KT 17/11 A2999 RMK A01 T01650105  RH  068%=      5-min Rain = 0
KQU1 101526Z 22017KT 17/11 A2999 RMK A01 T01650106  RH  068%=      5-min Rain = 0
KQU1 101527Z 22016KT 17/11 A2999 RMK A01 T01660106  RH  068%=      5-min Rain = 0
KQU1 101528Z 22015KT 17/11 A2999 RMK A01 T01670107  RH  068%=      5-min Rain = 0
KQU1 101529Z 22015KT 17/11 A2999 RMK A01 T01680107  RH  067%=      5-min Rain = 0
KQU1 101530Z 22013KT 17/11 A2998 RMK A01 T01690107  RH  067%=      5-min Rain = 0
KQU1 101531Z 23015KT 17/11 A2998 RMK A01 T01700108  RH  067%=      5-min Rain = 0
KQU1 101532Z 22012KT 17/11 A2998 RMK A01 T01710108  RH  066%=      5-min Rain = 0
KQU1 101533Z 22011KT 17/11 A2998 RMK A01 T01740109  RH  066%=      5-min Rain = 0
KQU1 101534Z 22012KT 18/11 A2998 RMK A01 T01750109  RH  065%=      5-min Rain = 0
KQU1 101535Z 22011KT 18/11 A2998 RMK A01 T01760108  RH  064%=      5-min Rain = 0
KQU1 101536Z 23011G16KT 18/11 A2998 RMK A01 T01770109  RH  064%=      5-min Rain = 0
KQU1 101537Z 23014KT 18/11 A2998 RMK A01 T01780108  RH  063%=      5-min Rain = 0
KQU1 101538Z 22012G17KT 18/11 A2998 RMK A01 T01780108  RH  064%=      5-min Rain = 0
KQU1 101539Z 22013KT 18/11 A2998 RMK A01 T01780108  RH  064%=      5-min Rain = 0
KQU1 101540Z 22015KT 18/11 A2998 RMK A01 T01790108  RH  063%=      5-min Rain = 0
KQU1 101541Z 21016KT 18/11 A2998 RMK A01 T01790107  RH  063%=      5-min Rain = 0
KQU1 101542Z 22017KT 18/11 A2998 RMK A01 T01780106  RH  063%=      5-min Rain = 0
KQU1 101543Z 22016KT 18/11 A2998 RMK A01 T01790106  RH  062%=      5-min Rain = 0
KQU1 101544Z 22017KT 18/11 A2998 RMK A01 T01790105  RH  062%=      5-min Rain = 0
KQU1 101545Z 22016KT 18/11 A2998 RMK A01 T01790105  RH  062%=      5-min Rain = 0
KQU1 101546Z 22014KT 18/11 A2998 RMK A01 T01800107  RH  062%=      5-min Rain = 0
KQU1 101547Z 22016KT 18/11 A2998 RMK A01 T01820107  RH  062%=      5-min Rain = 0
KQU1 101548Z 22017KT 18/11 A2997 RMK A01 T01820105  RH  061%=      5-min Rain = 0
KQU1 101549Z 22018KT 18/10 A2997 RMK A01 T01810104  RH  061%=      5-min Rain = 0
KQU1 101550Z 23019KT 18/10 A2997 RMK A01 T01810103  RH  060%=      5-min Rain = 0
KQU1 101551Z 22017KT 18/10 A2997 RMK A01 T01810103  RH  060%=      5-min Rain = 0
KQU1 101552Z 22014KT 18/11 A2997 RMK A01 T01820105  RH  061%=      5-min Rain = 0
KQU1 101553Z 21016G21KT 18/11 A2998 RMK A01 T01830105  RH  060%=      5-min Rain = 0
KQU1 101554Z 22018KT 18/10 A2997 RMK A01 T01830102  RH  059%=      5-min Rain = 0
KQU1 101555Z 21016KT 18/10 A2997 RMK A01 T01840103  RH  059%=      5-min Rain = 0
KQU1 101556Z 22013G18KT 18/10 A2997 RMK A01 T01840104  RH  059%=      5-min Rain = 0
KQU1 101557Z 22016KT 19/10 A2997 RMK A01 T01850102  RH  058%=      5-min Rain = 0
KQU1 101558Z 22018KT 18/10 A2997 RMK A01 T01840100  RH  058%=      5-min Rain = 0
KQU1 101559Z 23016KT 18/10 A2997 RMK A01 T01830100  RH  058%=      5-min Rain = 0
KQU1 101600Z 22014KT 18/10 A2997 RMK A01 T01830101  RH  059%=      5-min Rain = 0
KQU1 101601Z 21015KT 18/10 A2997 RMK A01 T01820100  RH  059%=      5-min Rain = 0
KQU1 101602Z 21015KT 18/10 A2997 RMK A01 T01810100  RH  059%=      5-min Rain = 0
KQU1 101603Z 22017KT 18/10 A2997 RMK A01 T01810098  RH  058%=      5-min Rain = 0
KQU1 101604Z 22015KT 18/10 A2997 RMK A01 T01810099  RH  059%=      5-min Rain = 0
KQU1 101605Z 21016G21KT 18/10 A2997 RMK A01 T01820099  RH  058%=      5-min Rain = 0
KQU1 101606Z 22015G20KT 18/10 A2997 RMK A01 T01830098  RH  058%=      5-min Rain = 0
KQU1 101607Z 22019KT 18/10 A2997 RMK A01 T01840097  RH  057%=      5-min Rain = 0
KQU1 101608Z 22019KT 18/10 A2997 RMK A01 T01840097  RH  057%=      5-min Rain = 0
KQU1 101609Z 22019KT 18/10 A2997 RMK A01 T01840097  RH  057%=      5-min Rain = 0
KQU1 101610Z 22016KT 19/10 A2997 RMK A01 T01850098  RH  057%=      5-min Rain = 0
KQU1 101611Z 23015KT 19/10 A2997 RMK A01 T01870099  RH  056%=      5-min Rain = 0
KQU1 101612Z 22014KT 19/10 A2997 RMK A01 T01880098  RH  056%=      5-min Rain = 0
KQU1 101613Z 23016KT 19/10 A2997 RMK A01 T01900098  RH  055%=      5-min Rain = 0
KQU1 101614Z 23016KT 19/10 A2997 RMK A01 T01910099  RH  055%=      5-min Rain = 0
KQU1 101615Z 22015KT 19/10 A2997 RMK A01 T01900097  RH  055%=      5-min Rain = 0
KQU1 101616Z 22014KT 19/10 A2997 RMK A01 T01890098  RH  055%=      5-min Rain = 0
KQU1 101617Z 22016KT 19/10 A2997 RMK A01 T01890097  RH  055%=      5-min Rain = 0
KQU1 101618Z 23014KT 19/10 A2997 RMK A01 T01880096  RH  055%=      5-min Rain = 0
KQU1 101619Z 23012KT 19/10 A2997 RMK A01 T01890097  RH  055%=      5-min Rain = 0
KQU1 101620Z 23012KT 19/10 A2997 RMK A01 T01900097  RH  055%=      5-min Rain = 0
KQU1 101621Z 22015KT 19/09 A2997 RMK A01 T01910093  RH  053%=      5-min Rain = 0
KQU1 101622Z 23014KT 19/09 A2997 RMK A01 T01900093  RH  053%=      5-min Rain = 0
KQU1 101623Z 23015KT 19/09 A2997 RMK A01 T01910092  RH  053%=      5-min Rain = 0
KQU1 101624Z 23014KT 19/09 A2997 RMK A01 T01910093  RH  053%=      5-min Rain = 0
KQU1 101625Z 23013KT 19/09 A2997 RMK A01 T01900094  RH  053%=      5-min Rain = 0
KQU1 101626Z 23012KT 19/10 A2997 RMK A01 T01910095  RH  054%=      5-min Rain = 0
KQU1 101627Z 23012KT 19/09 A2997 RMK A01 T01920094  RH  053%=      5-min Rain = 0
KQU1 101628Z 23013KT 19/09 A2997 RMK A01 T01930092  RH  052%=      5-min Rain = 0
KQU1 101629Z 24012KT 19/09 A2997 RMK A01 T01940092  RH  052%=      5-min Rain = 0
KQU1 101630Z 23013KT 20/09 A2997 RMK A01 T01950092  RH  051%=      5-min Rain = 0
KQU1 101631Z 23014KT 20/09 A2997 RMK A01 T01970091  RH  050%=      5-min Rain = 0
KQU1 101632Z 23011KT 20/09 A2997 RMK A01 T01970092  RH  051%=      5-min Rain = 0
KQU1 101633Z 24010KT 20/09 A2997 RMK A01 T01990092  RH  050%=      5-min Rain = 0
KQU1 101634Z 23010KT 20/09 A2997 RMK A01 T02000094  RH  050%=      5-min Rain = 0
KQU1 101635Z 23011KT 20/10 A2997 RMK A01 T02020095  RH  050%=      5-min Rain = 0
KQU1 101636Z 22011KT 21/10 A2997 RMK A01 T02050096  RH  050%=      5-min Rain = 0
KQU1 101637Z 22011KT 21/09 A2997 RMK A01 T02060094  RH  048%=      5-min Rain = 0
KQU1 101638Z 22015KT 20/09 A2997 RMK A01 T02040090  RH  048%=      5-min Rain = 0
KQU1 101639Z 22015KT 20/09 A2997 RMK A01 T02030089  RH  048%=      5-min Rain = 0
KQU1 101640Z 23013KT 20/09 A2997 RMK A01 T02020089  RH  048%=      5-min Rain = 0
KQU1 101641Z 22012KT 20/09 A2997 RMK A01 T02020091  RH  049%=      5-min Rain = 0
KQU1 101642Z 22011KT 20/09 A2997 RMK A01 T02040092  RH  048%=      5-min Rain = 0
KQU1 101643Z 23011KT 20/09 A2997 RMK A01 T02040090  RH  048%=      5-min Rain = 0
KQU1 101644Z 23010KT 20/09 A2997 RMK A01 T02040090  RH  048%=      5-min Rain = 0
KQU1 101645Z 22011KT 21/09 A2997 RMK A01 T02050089  RH  047%=      5-min Rain = 0
KQU1 101646Z 21012KT 21/09 A2997 RMK A01 T02050090  RH  047%=      5-min Rain = 0
KQU1 101647Z 23012KT 21/09 A2997 RMK A01 T02050088  RH  047%=      5-min Rain = 0
KQU1 101648Z 22012KT 21/09 A2997 RMK A01 T02050087  RH  047%=      5-min Rain = 0
KQU1 101649Z 22013KT 21/09 A2997 RMK A01 T02050085  RH  046%=      5-min Rain = 0
KQU1 101650Z 22012KT 20/08 A2997 RMK A01 T02030084  RH  046%=      5-min Rain = 0
KQU1 101651Z 22009KT 20/09 A2997 RMK A01 T02040085  RH  046%=      5-min Rain = 0
KQU1 101652Z 21010KT 20/09 A2997 RMK A01 T02040085  RH  046%=      5-min Rain = 0
KQU1 101653Z 21013KT 21/08 A2997 RMK A01 T02050083  RH  045%=      5-min Rain = 0
KQU1 101654Z 21012KT 20/08 A2997 RMK A01 T02040081  RH  045%=      5-min Rain = 0
KQU1 101655Z 22010KT 20/09 A2997 RMK A01 T02040085  RH  046%=      5-min Rain = 0
KQU1 101656Z 24008KT 21/08 A2997 RMK A01 T02060079  RH  044%=      5-min Rain = 0
KQU1 101657Z 22011KT 21/08 A2997 RMK A01 T02070081  RH  044%=      5-min Rain = 0
KQU1 101658Z 23011KT 21/08 A2997 RMK A01 T02070080  RH  044%=      5-min Rain = 0
KQU1 101659Z 23011KT 21/08 A2997 RMK A01 T02070079  RH  044%=      5-min Rain = 0
KQU1 101700Z 21011KT 21/08 A2997 RMK A01 T02070079  RH  044%=      5-min Rain = 0
KQU1 101701Z 22011KT 21/08 A2997 RMK A01 T02060080  RH  044%=      5-min Rain = 0
KQU1 101702Z 22012KT 21/08 A2997 RMK A01 T02070081  RH  044%=      5-min Rain = 0
KQU1 101703Z 23011KT 21/08 A2997 RMK A01 T02070078  RH  043%=      5-min Rain = 0
KQU1 101704Z 22012KT 21/07 A2997 RMK A01 T02080073  RH  042%=      5-min Rain = 0
KQU1 101705Z 22014KT 21/07 A2997 RMK A01 T02090070  RH  040%=      5-min Rain = 0
KQU1 101706Z 24014KT 21/07 A2997 RMK A01 T02090067  RH  040%=      5-min Rain = 0
KQU1 101707Z 22013KT 21/07 A2997 RMK A01 T02080065  RH  039%=      5-min Rain = 0
KQU1 101708Z 22013KT 21/07 A2997 RMK A01 T02070067  RH  040%=      5-min Rain = 0
KQU1 101709Z 23011KT 21/07 A2997 RMK A01 T02060065  RH  040%=      5-min Rain = 0
KQU1 101710Z 24008KT 21/07 A2997 RMK A01 T02060068  RH  041%=      5-min Rain = 0
KQU1 101711Z 24009KT 21/07 A2997 RMK A01 T02080070  RH  041%=      5-min Rain = 0
KQU1 101712Z 23010KT 21/07 A2996 RMK A01 T02090071  RH  041%=      5-min Rain = 0
KQU1 101713Z 24009KT 21/07 A2996 RMK A01 T02090071  RH  041%=      5-min Rain = 0
KQU1 101714Z 25007KT 21/07 A2996 RMK A01 T02100072  RH  041%=      5-min Rain = 0
KQU1 101715Z 27008KT 21/07 A2996 RMK A01 T02100067  RH  039%=      5-min Rain = 0
KQU1 101716Z 24005KT 21/07 A2996 RMK A01 T02110072  RH  041%=      5-min Rain = 0
KQU1 101717Z 22009KT 21/07 A2996 RMK A01 T02120070  RH  040%=      5-min Rain = 0
KQU1 101718Z 23009KT 21/07 A2996 RMK A01 T02130070  RH  040%=      5-min Rain = 0
KQU1 101719Z 22007KT 21/07 A2996 RMK A01 T02130074  RH  041%=      5-min Rain = 0
KQU1 101720Z 21010KT 21/07 A2996 RMK A01 T02140074  RH  040%=      5-min Rain = 0
KQU1 101721Z 21009KT 21/07 A2996 RMK A01 T02140073  RH  040%=      5-min Rain = 0
KQU1 101722Z 22012KT 21/07 A2996 RMK A01 T02140073  RH  040%=      5-min Rain = 0
KQU1 101723Z 22011KT 21/07 A2996 RMK A01 T02140069  RH  039%=      5-min Rain = 0
KQU1 101724Z 21010KT 21/07 A2996 RMK A01 T02120065  RH  038%=      5-min Rain = 0
KQU1 101725Z 22012KT 21/07 A2996 RMK A01 T02120067  RH  039%=      5-min Rain = 0
KQU1 101726Z 23012KT 21/07 A2996 RMK A01 T02130065  RH  038%=      5-min Rain = 0
KQU1 101727Z 22009KT 21/06 A2995 RMK A01 T02120063  RH  038%=      5-min Rain = 0
KQU1 101728Z 22010KT 21/07 A2995 RMK A01 T02120068  RH  039%=      5-min Rain = 0
KQU1 101729Z 24008KT 21/07 A2995 RMK A01 T02120066  RH  039%=      5-min Rain = 0
KQU1 101730Z 25007KT 21/07 A2995 RMK A01 T02120068  RH  039%=      5-min Rain = 0
KQU1 101731Z 23007KT 21/07 A2995 RMK A01 T02120070  RH  040%=      5-min Rain = 0
KQU1 101732Z 22011KT 21/07 A2995 RMK A01 T02140070  RH  039%=      5-min Rain = 0
KQU1 101733Z 22009KT 21/06 A2995 RMK A01 T02130064  RH  038%=      5-min Rain = 0
KQU1 101734Z 23010KT 21/07 A2995 RMK A01 T02130066  RH  039%=      5-min Rain = 0
KQU1 101735Z 21010KT 22/07 A2995 RMK A01 T02160069  RH  038%=      5-min Rain = 0
KQU1 101736Z 21011KT 22/07 A2995 RMK A01 T02170066  RH  038%=      5-min Rain = 0
KQU1 101737Z 21011KT 22/07 A2995 RMK A01 T02170065  RH  037%=      5-min Rain = 0
KQU1 101738Z 21011KT 22/06 A2995 RMK A01 T02180063  RH  037%=      5-min Rain = 0
KQU1 101739Z 21010KT 22/06 A2995 RMK A01 T02180061  RH  036%=      5-min Rain = 0
KQU1 101740Z 22012G17KT 22/06 A2995 RMK A01 T02180060  RH  036%=      5-min Rain = 0
KQU1 101741Z 21009KT 22/06 A2995 RMK A01 T02170061  RH  036%=      5-min Rain = 0
KQU1 101742Z 21008KT 22/06 A2995 RMK A01 T02160059  RH  036%=      5-min Rain = 0
KQU1 101743Z 22011KT 22/06 A2995 RMK A01 T02170055  RH  035%=      5-min Rain = 0
KQU1 101744Z 23009KT 22/05 A2994 RMK A01 T02180049  RH  033%=      5-min Rain = 0
KQU1 101745Z 23010KT 22/05 A2994 RMK A01 T02180049  RH  033%=      5-min Rain = 0
KQU1 101746Z 21012KT 22/05 A2994 RMK A01 T02190047  RH  033%=      5-min Rain = 0
KQU1 101747Z 22010KT 22/04 A2994 RMK A01 T02190043  RH  032%=      5-min Rain = 0
KQU1 101748Z 23009KT 22/04 A2994 RMK A01 T02210041  RH  031%=      5-min Rain = 0
KQU1 101749Z 23010KT 22/04 A2994 RMK A01 T02210042  RH  031%=      5-min Rain = 0
KQU1 101750Z 23008KT 22/04 A2994 RMK A01 T02210043  RH  031%=      5-min Rain = 0
KQU1 101751Z 21013KT 22/04 A2994 RMK A01 T02220044  RH  031%=      5-min Rain = 0
KQU1 101752Z 22014KT 22/04 A2994 RMK A01 T02230041  RH  030%=      5-min Rain = 0
KQU1 101753Z 22012KT 23/04 A2994 RMK A01 T02250042  RH  030%=      5-min Rain = 0
KQU1 101754Z 23013G18KT 23/04 A2994 RMK A01 T02270039  RH  029%=      5-min Rain = 0
KQU1 101755Z 24011KT 23/04 A2994 RMK A01 T02280037  RH  029%=      5-min Rain = 0
KQU1 101756Z 21012KT 23/04 A2994 RMK A01 T02290038  RH  029%=      5-min Rain = 0
KQU1 101757Z 22012KT 23/04 A2994 RMK A01 T02290037  RH  029%=      5-min Rain = 0
KQU1 101758Z 23012KT 23/04 A2994 RMK A01 T02300038  RH  029%=      5-min Rain = 0
KQU1 101759Z 22008KT 23/04 A2994 RMK A01 T02300041  RH  029%=      5-min Rain = 0
KQU1 101800Z 22008KT 23/05 A2994 RMK A01 T02320047  RH  030%=      5-min Rain = 0
KQU1 101801Z 23007KT 23/04 A2993 RMK A01 T02310043  RH  029%=      5-min Rain = 0
KQU1 101802Z 22009KT 23/05 A2993 RMK A01 T02310046  RH  030%=      5-min Rain = 0
KQU1 101803Z 22010KT 23/04 A2993 RMK A01 T02290043  RH  030%=      5-min Rain = 0
KQU1 101804Z 22008KT 23/05 A2993 RMK A01 T02280045  RH  030%=      5-min Rain = 0
KQU1 101805Z 23008KT 23/05 A2993 RMK A01 T02290046  RH  030%=      5-min Rain = 0
KQU1 101806Z 22009KT 23/05 A2993 RMK A01 T02290047  RH  031%=      5-min Rain = 0
KQU1 101807Z 23008G14KT 23/05 A2993 RMK A01 T02280045  RH  030%=      5-min Rain = 0
KQU1 101808Z 22009KT 23/05 A2993 RMK A01 T02280046  RH  031%=      5-min Rain = 0
KQU1 101809Z 22012KT 23/04 A2993 RMK A01 T02300042  RH  029%=      5-min Rain = 0
KQU1 101810Z 22010KT 23/04 A2993 RMK A01 T02310042  RH  029%=      5-min Rain = 0
KQU1 101811Z 24012KT 23/04 A2993 RMK A01 T02310039  RH  029%=      5-min Rain = 0
KQU1 101812Z 22010KT 23/04 A2993 RMK A01 T02300038  RH  029%=      5-min Rain = 0
KQU1 101813Z 23010KT 23/04 A2993 RMK A01 T02290037  RH  029%=      5-min Rain = 0
KQU1 101814Z 25011KT 23/04 A2993 RMK A01 T02290038  RH  029%=      5-min Rain = 0
KQU1 101815Z 24011KT 23/04 A2993 RMK A01 T02310040  RH  029%=      5-min Rain = 0
KQU1 101816Z 23014KT 23/04 A2993 RMK A01 T02340035  RH  027%=      5-min Rain = 0
KQU1 101817Z 24011KT 24/03 A2992 RMK A01 T02350031  RH  026%=      5-min Rain = 0
KQU1 101818Z 24010KT 24/03 A2992 RMK A01 T02360029  RH  026%=      5-min Rain = 0
KQU1 101819Z 22014G20KT 24/03 A2992 RMK A01 T02390029  RH  025%=      5-min Rain = 0
KQU1 101820Z 24016KT 24/03 A2992 RMK A01 T02400025  RH  025%=      5-min Rain = 0
KQU1 101821Z 24013KT 24/03 A2992 RMK A01 T02400025  RH  024%=      5-min Rain = 0
KQU1 101822Z 23017KT 24/02 A2992 RMK A01 T02410023  RH  024%=      5-min Rain = 0
KQU1 101823Z 23017KT 24/02 A2992 RMK A01 T02400018  RH  023%=      5-min Rain = 0
KQU1 101824Z 23013G18KT 24/02 A2992 RMK A01 T02400021  RH  024%=      5-min Rain = 0
KQU1 101825Z 23014KT 24/02 A2992 RMK A01 T02410021  RH  024%=      5-min Rain = 0
KQU1 101826Z 25012KT 24/02 A2992 RMK A01 T02420022  RH  024%=      5-min Rain = 0
KQU1 101827Z 25013KT 24/02 A2992 RMK A01 T02440023  RH  024%=      5-min Rain = 0
KQU1 101828Z 24011KT 24/02 A2992 RMK A01 T02440024  RH  024%=      5-min Rain = 0
KQU1 101829Z 23010KT 24/02 A2991 RMK A01 T02440022  RH  023%=      5-min Rain = 0
KQU1 101830Z 22011KT 24/03 A2991 RMK A01 T02430026  RH  024%=      5-min Rain = 0
KQU1 101831Z 23013KT 25/03 A2991 RMK A01 T02450026  RH  024%=      5-min Rain = 0
KQU1 101832Z 24008KT 25/03 A2991 RMK A01 T02450026  RH  024%=      5-min Rain = 0
KQU1 101833Z 25008G13KT 25/03 A2991 RMK A01 T02490030  RH  024%=      5-min Rain = 0
KQU1 101834Z 26010KT 25/02 A2991 RMK A01 T02520024  RH  023%=      5-min Rain = 0
KQU1 101835Z 24010KT 25/02 A2991 RMK A01 T02530023  RH  022%=      5-min Rain = 0
KQU1 101836Z 24013KT 25/03 A2991 RMK A01 T02540025  RH  023%=      5-min Rain = 0
KQU1 101837Z 24014G21KT 25/02 A2991 RMK A01 T02540019  RH  022%=      5-min Rain = 0
KQU1 101838Z 25017G22KT 25/01 A2991 RMK A01 T02530008  RH  020%=      5-min Rain = 0
KQU1 101839Z 25020KT 25/01 A2991 RMK A01 T02510007  RH  020%=      5-min Rain = 0
KQU1 101840Z 25020KT 25/01 A299 RMK A01 T02490007  RH  021%=      5-min Rain = 0
KQU1 101841Z 25019KT 25/01 A299 RMK A01 T02470010  RH  021%=      5-min Rain = 0
KQU1 101842Z 25017KT 25/01 A299 RMK A01 T02460010  RH  021%=      5-min Rain = 0
KQU1 101843Z 25016KT 25/01 A299 RMK A01 T02460013  RH  022%=      5-min Rain = 0
KQU1 101844Z 24015KT 25/01 A299 RMK A01 T02480014  RH  021%=      5-min Rain = 0
KQU1 101845Z 24019KT 25/01 A299 RMK A01 T02500014  RH  021%=      5-min Rain = 0
KQU1 101846Z 24017KT 25/01 A299 RMK A01 T02510010  RH  021%=      5-min Rain = 0
KQU1 101847Z 24016KT 25/01 A299 RMK A01 T02500011  RH  021%=      5-min Rain = 0
KQU1 101848Z 23015KT 25/01 A299 RMK A01 T02510014  RH  021%=      5-min Rain = 0
KQU1 101849Z 24012KT 25/02 A299 RMK A01 T02540017  RH  021%=      5-min Rain = 0
KQU1 101850Z 24016KT 26/02 A299 RMK A01 T02560015  RH  021%=      5-min Rain = 0
KQU1 101851Z 24018KT 25/02 A2989 RMK A01 T02540016  RH  021%=      5-min Rain = 0
KQU1 101852Z 24013G18KT 25/02 A2989 RMK A01 T02530019  RH  022%=      5-min Rain = 0
KQU1 101853Z 24014KT 25/02 A2989 RMK A01 T02540018  RH  021%=      5-min Rain = 0
KQU1 101854Z 24016KT 25/01 A2989 RMK A01 T02540013  RH  021%=      5-min Rain = 0
KQU1 101855Z 22016G23KT 25/01 A2989 RMK A01 T02540012  RH  021%=      5-min Rain = 0
KQU1 101856Z 23017KT 25/00 A2989 RMK A01 T02530001  RH  019%=      5-min Rain = 0
KQU1 101857Z 22015KT 25/00 A2989 RMK A01 T02530004  RH  020%=      5-min Rain = 0
KQU1 101858Z 23018G23KT 25/M00 A2989 RMK A01 T02541002  RH  019%=      5-min Rain = 0
KQU1 101859Z 23019G24KT 25/M01 A2989 RMK A01 T02541008  RH  018%=      5-min Rain = 0
KQU1 101900Z 23022KT 25/M01 A2989 RMK A01 T02541005  RH  018%=      5-min Rain = 0
KQU1 101901Z 23017KT 25/M00 A2989 RMK A01 T02541004  RH  018%=      5-min Rain = 0
KQU1 101902Z 24017KT 26/M00 A2989 RMK A01 T02551003  RH  018%=      5-min Rain = 0
KQU1 101903Z 24017KT 26/M00 A2989 RMK A01 T02561001  RH  018%=      5-min Rain = 0
KQU1 101904Z 24015KT 26/00 A2989 RMK A01 T02560001  RH  019%=      5-min Rain = 0
KQU1 101905Z 24016KT 26/M00 A2989 RMK A01 T02571001  RH  018%=      5-min Rain = 0
KQU1 101906Z 26019G24KT 26/M00 A2989 RMK A01 T02581001  RH  018%=      5-min Rain = 0
KQU1 101907Z 26020KT 26/M00 A2989 RMK A01 T02561004  RH  018%=      5-min Rain = 0
KQU1 101908Z 25018KT 25/00 A2989 RMK A01 T025400-0  RH  019%=      5-min Rain = 0
KQU1 101909Z 26019KT 25/00 A2988 RMK A01 T02540001  RH  019%=      5-min Rain = 0
KQU1 101910Z 25017KT 25/00 A2988 RMK A01 T02540002  RH  019%=      5-min Rain = 0
KQU1 101911Z 25016KT 25/00 A2988 RMK A01 T02540003  RH  019%=      5-min Rain = 0
KQU1 101912Z 25017KT 26/00 A2988 RMK A01 T02550003  RH  019%=      5-min Rain = 0
KQU1 101913Z 25018KT 25/00 A2988 RMK A01 T02530002  RH  019%=      5-min Rain = 0
KQU1 101914Z 25018KT 25/01 A2988 RMK A01 T02520005  RH  020%=      5-min Rain = 0
KQU1 101915Z 25018KT 25/01 A2988 RMK A01 T02520006  RH  020%=      5-min Rain = 0
KQU1 101916Z 25015KT 25/01 A2988 RMK A01 T02520006  RH  020%=      5-min Rain = 0
KQU1 101917Z 24014KT 25/01 A2988 RMK A01 T02530010  RH  020%=      5-min Rain = 0
KQU1 101918Z 25017KT 26/01 A2988 RMK A01 T02550011  RH  020%=      5-min Rain = 0
KQU1 101919Z 24016KT 26/01 A2988 RMK A01 T02550012  RH  020%=      5-min Rain = 0
KQU1 101920Z 25014KT 26/01 A2988 RMK A01 T02560012  RH  020%=      5-min Rain = 0
KQU1 101921Z 24014KT 26/01 A2988 RMK A01 T02550010  RH  020%=      5-min Rain = 0
KQU1 101922Z 24013KT 26/01 A2988 RMK A01 T02560013  RH  020%=      5-min Rain = 0
KQU1 101923Z 25011KT 26/02 A2988 RMK A01 T02570016  RH  021%=      5-min Rain = 0
KQU1 101924Z 25015KT 26/01 A2987 RMK A01 T02570012  RH  020%=      5-min Rain = 0
KQU1 101925Z 25013KT 26/01 A2987 RMK A01 T02560013  RH  021%=      5-min Rain = 0
KQU1 101926Z 26014KT 26/02 A2987 RMK A01 T02560016  RH  021%=      5-min Rain = 0
KQU1 101927Z 26011KT 26/02 A2987 RMK A01 T02560016  RH  021%=      5-min Rain = 0
KQU1 101928Z 26016KT 26/02 A2987 RMK A01 T02550017  RH  021%=      5-min Rain = 0
KQU1 101929Z 23013KT 26/02 A2987 RMK A01 T02560018  RH  021%=      5-min Rain = 0
KQU1 101930Z 23012KT 26/02 A2987 RMK A01 T02570021  RH  022%=      5-min Rain = 0
KQU1 101931Z 24012KT 26/02 A2987 RMK A01 T02600021  RH  021%=      5-min Rain = 0
KQU1 101932Z 24012KT 26/02 A2987 RMK A01 T02600021  RH  021%=      5-min Rain = 0
KQU1 101933Z 23011KT 26/02 A2987 RMK A01 T02610022  RH  021%=      5-min Rain = 0
KQU1 101934Z 25009KT 26/02 A2987 RMK A01 T02610022  RH  021%=      5-min Rain = 0
KQU1 101935Z 24010KT 26/02 A2987 RMK A01 T02630023  RH  021%=      5-min Rain = 0
KQU1 101936Z 25008KT 26/02 A2987 RMK A01 T02630023  RH  021%=      5-min Rain = 0
KQU1 101937Z 23009G15KT 27/03 A2986 RMK A01 T02650026  RH  021%=      5-min Rain = 0
KQU1 101938Z 23012KT 27/03 A2986 RMK A01 T02660028  RH  021%=      5-min Rain = 0
KQU1 101939Z 23012KT 27/03 A2986 RMK A01 T02660029  RH  022%=      5-min Rain = 0
KQU1 101940Z 23011KT 27/03 A2986 RMK A01 T02670028  RH  021%=      5-min Rain = 0
KQU1 101941Z 23010KT 27/03 A2986 RMK A01 T02670029  RH  021%=      5-min Rain = 0
KQU1 101942Z 23011KT 27/03 A2986 RMK A01 T02670027  RH  021%=      5-min Rain = 0
KQU1 101943Z 22011KT 27/03 A2986 RMK A01 T02660028  RH  021%=      5-min Rain = 0
KQU1 101944Z 22009KT 27/03 A2986 RMK A01 T02650026  RH  021%=      5-min Rain = 0
KQU1 101945Z 22009G14KT 27/03 A2986 RMK A01 T02650025  RH  021%=      5-min Rain = 0
KQU1 101946Z 21007KT 26/03 A2986 RMK A01 T02630026  RH  021%=      5-min Rain = 0
KQU1 101947Z 20006KT 26/03 A2986 RMK A01 T02630027  RH  022%=      5-min Rain = 0
KQU1 101948Z 22007KT 26/03 A2986 RMK A01 T02640030  RH  022%=      5-min Rain = 0
KQU1 101949Z 23009G14KT 27/03 A2986 RMK A01 T02660029  RH  022%=      5-min Rain = 0
KQU1 101950Z 23010KT 27/03 A2986 RMK A01 T02670029  RH  022%=      5-min Rain = 0
KQU1 101951Z 21010KT 27/03 A2986 RMK A01 T02670031  RH  022%=      5-min Rain = 0
KQU1 101952Z 20008KT 27/03 A2985 RMK A01 T02680029  RH  021%=      5-min Rain = 0
KQU1 101953Z 23010KT 27/03 A2985 RMK A01 T02670028  RH  021%=      5-min Rain = 0
KQU1 101954Z 22009KT 27/03 A2985 RMK A01 T02670030  RH  022%=      5-min Rain = 0
KQU1 101955Z 24009KT 27/03 A2985 RMK A01 T02680032  RH  022%=      5-min Rain = 0
KQU1 101956Z 26008G13KT 27/03 A2985 RMK A01 T02690031  RH  022%=      5-min Rain = 0
KQU1 101957Z 24011KT 27/03 A2985 RMK A01 T02700030  RH  021%=      5-min Rain = 0
KQU1 101958Z 24011KT 27/03 A2985 RMK A01 T02700030  RH  021%=      5-min Rain = 0
KQU1 101959Z 24010KT 27/03 A2985 RMK A01 T02710030  RH  021%=      5-min Rain = 0
KQU1 102000Z 23014KT 27/04 A2985 RMK A01 T02700035  RH  022%=      5-min Rain = 0
KQU1 102001Z 24016KT 27/04 A2985 RMK A01 T02710038  RH  022%=      5-min Rain = 0
KQU1 102002Z 24012G17KT 27/04 A2985 RMK A01 T02690041  RH  023%=      5-min Rain = 0
KQU1 102003Z 24016KT 27/04 A2985 RMK A01 T02700044  RH  023%=      5-min Rain = 0
KQU1 102004Z 23010G15KT 27/05 A2985 RMK A01 T02690046  RH  024%=      5-min Rain = 0
KQU1 102005Z 22010G16KT 27/05 A2985 RMK A01 T02710048  RH  024%=      5-min Rain = 0
KQU1 102006Z 23012G17KT 27/05 A2985 RMK A01 T02710048  RH  024%=      5-min Rain = 0
KQU1 102007Z 20014G20KT 27/05 A2984 RMK A01 T02710049  RH  024%=      5-min Rain = 0
KQU1 102008Z 20019KT 27/05 A2984 RMK A01 T02690048  RH  024%=      5-min Rain = 0
KQU1 102009Z 18016KT 27/05 A2984 RMK A01 T02670049  RH  025%=      5-min Rain = 0
KQU1 102010Z 19015KT 27/05 A2984 RMK A01 T02660050  RH  025%=      5-min Rain = 0
KQU1 102011Z 20017KT 27/05 A2984 RMK A01 T02670052  RH  025%=      5-min Rain = 0
KQU1 102012Z 22017KT 27/05 A2984 RMK A01 T02670052  RH  025%=      5-min Rain = 0
KQU1 102013Z 21016KT 27/05 A2984 RMK A01 T02670052  RH  025%=      5-min Rain = 0
KQU1 102014Z 20012KT 27/05 A2984 RMK A01 T02650052  RH  025%=      5-min Rain = 0
KQU1 102015Z 20010KT 27/05 A2984 RMK A01 T02650053  RH  026%=      5-min Rain = 0
KQU1 102016Z 20010KT 27/06 A2984 RMK A01 T02660057  RH  026%=      5-min Rain = 0
KQU1 102017Z 20011G17KT 27/06 A2984 RMK A01 T02680059  RH  026%=      5-min Rain = 0
KQU1 102018Z 21014G20KT 27/06 A2984 RMK A01 T02680057  RH  026%=      5-min Rain = 0
KQU1 102019Z 21013KT 27/06 A2984 RMK A01 T02680059  RH  026%=      5-min Rain = 0
KQU1 102020Z 21014G20KT 27/06 A2984 RMK A01 T02670059  RH  026%=      5-min Rain = 0
KQU1 102021Z 22015KT 27/06 A2984 RMK A01 T02670061  RH  027%=      5-min Rain = 0
KQU1 102022Z 21013G18KT 27/06 A2984 RMK A01 T02670061  RH  027%=      5-min Rain = 0
KQU1 102023Z 23010KT 27/06 A2984 RMK A01 T02670063  RH  027%=      5-min Rain = 0
KQU1 102024Z 23012KT 27/06 A2984 RMK A01 T02670062  RH  027%=      5-min Rain = 0
KQU1 102025Z 21012KT 27/07 A2984 RMK A01 T02690066  RH  027%=      5-min Rain = 0
KQU1 102026Z 21013KT 27/06 A2984 RMK A01 T02710064  RH  027%=      5-min Rain = 0
KQU1 102027Z 21015KT 27/06 A2984 RMK A01 T02700062  RH  027%=      5-min Rain = 0
KQU1 102028Z 21018G23KT 27/06 A2983 RMK A01 T02700064  RH  027%=      5-min Rain = 0
KQU1 102029Z 23019G25KT 27/06 A2983 RMK A01 T02690064  RH  027%=      5-min Rain = 0
KQU1 102030Z 23015KT 27/07 A2983 RMK A01 T02690065  RH  027%=      5-min Rain = 0
KQU1 102031Z 22013KT 27/07 A2983 RMK A01 T02690066  RH  028%=      5-min Rain = 0
KQU1 102032Z 20011KT 27/07 A2983 RMK A01 T02700067  RH  028%=      5-min Rain = 0
KQU1 102033Z 20013KT 27/07 A2983 RMK A01 T02700067  RH  028%=      5-min Rain = 0
KQU1 102034Z 21014KT 27/07 A2983 RMK A01 T02690068  RH  028%=      5-min Rain = 0
KQU1 102035Z 20014KT 27/07 A2983 RMK A01 T02690069  RH  028%=      5-min Rain = 0
KQU1 102036Z 22016KT 27/07 A2983 RMK A01 T02690068  RH  028%=      5-min Rain = 0
KQU1 102037Z 21014KT 27/07 A2983 RMK A01 T02680068  RH  028%=      5-min Rain = 0
KQU1 102038Z 20011KT 27/07 A2983 RMK A01 T02660068  RH  028%=      5-min Rain = 0
KQU1 102039Z 19010KT 27/07 A2983 RMK A01 T02650068  RH  029%=      5-min Rain = 0
KQU1 102040Z 20011KT 27/07 A2983 RMK A01 T02650073  RH  029%=      5-min Rain = 0
KQU1 102041Z 20016KT 27/07 A2983 RMK A01 T02670073  RH  029%=      5-min Rain = 0
KQU1 102042Z 21016KT 27/07 A2983 RMK A01 T02660073  RH  029%=      5-min Rain = 0
KQU1 102043Z 20013KT 27/07 A2983 RMK A01 T02650074  RH  030%=      5-min Rain = 0
KQU1 102044Z 20016G21KT 27/07 A2983 RMK A01 T02650073  RH  030%=      5-min Rain = 0
KQU1 102045Z 21015G21KT 26/07 A2983 RMK A01 T02640074  RH  030%=      5-min Rain = 0
KQU1 102046Z 21015KT 26/08 A2983 RMK A01 T02640075  RH  030%=      5-min Rain = 0
KQU1 102047Z 18015G20KT 26/08 A2983 RMK A01 T02640076  RH  030%=      5-min Rain = 0
KQU1 102048Z 19017G22KT 27/08 A2983 RMK A01 T02650076  RH  030%=      5-min Rain = 0
KQU1 102049Z 20015KT 27/08 A2983 RMK A01 T02650077  RH  030%=      5-min Rain = 0
KQU1 102050Z 20017KT 27/08 A2983 RMK A01 T02650075  RH  030%=      5-min Rain = 0
KQU1 102051Z 21012KT 27/08 A2984 RMK A01 T02650075  RH  030%=      5-min Rain = 0
KQU1 102052Z 21011KT 27/08 A2984 RMK A01 T02650075  RH  030%=      5-min Rain = 0
KQU1 102053Z 20011KT 27/08 A2984 RMK A01 T02650075  RH  030%=      5-min Rain = 0
KQU1 102054Z 20014G19KT 27/08 A2984 RMK A01 T02650076  RH  030%=      5-min Rain = 0
KQU1 102055Z 22014KT 27/08 A2984 RMK A01 T02660075  RH  030%=      5-min Rain = 0
KQU1 102056Z 21013KT 26/07 A2984 RMK A01 T02640074  RH  030%=      5-min Rain = 0
KQU1 102057Z 21012KT 26/08 A2983 RMK A01 T02640076  RH  030%=      5-min Rain = 0
KQU1 102058Z 22012KT 26/08 A2983 RMK A01 T02640078  RH  031%=      5-min Rain = 0
KQU1 102059Z 22015KT 26/08 A2983 RMK A01 T02640078  RH  031%=      5-min Rain = 0
KQU1 102100Z 21013KT 26/08 A2983 RMK A01 T02630076  RH  030%=      5-min Rain = 0
KQU1 102101Z 20014KT 26/08 A2983 RMK A01 T02630078  RH  031%=      5-min Rain = 0
KQU1 102102Z 20015KT 26/08 A2983 RMK A01 T02630077  RH  031%=      5-min Rain = 0
KQU1 102103Z 20014KT 26/08 A2983 RMK A01 T02630078  RH  031%=      5-min Rain = 0
KQU1 102104Z 21015KT 26/08 A2983 RMK A01 T02630077  RH  031%=      5-min Rain = 0
KQU1 102105Z 20017KT 26/08 A2983 RMK A01 T02630077  RH  031%=      5-min Rain = 0
KQU1 102106Z 21015KT 26/08 A2983 RMK A01 T02630076  RH  031%=      5-min Rain = 0
KQU1 102107Z 22017KT 26/08 A2983 RMK A01 T02630076  RH  031%=      5-min Rain = 0
KQU1 102108Z 22015KT 26/08 A2983 RMK A01 T02630077  RH  031%=      5-min Rain = 0
KQU1 102109Z 20013KT 26/08 A2983 RMK A01 T02630079  RH  031%=      5-min Rain = 0
KQU1 102110Z 22013KT 26/08 A2983 RMK A01 T02630078  RH  031%=      5-min Rain = 0
KQU1 102111Z 21013KT 26/08 A2983 RMK A01 T02630076  RH  031%=      5-min Rain = 0
KQU1 102112Z 20011KT 26/08 A2983 RMK A01 T02630076  RH  030%=      5-min Rain = 0
KQU1 102113Z 20013KT 26/08 A2983 RMK A01 T02630077  RH  031%=      5-min Rain = 0
KQU1 102114Z 19015KT 26/08 A2983 RMK A01 T02630078  RH  031%=      5-min Rain = 0
KQU1 102115Z 19014KT 26/08 A2983 RMK A01 T02620078  RH  031%=      5-min Rain = 0
KQU1 102116Z 19014KT 26/08 A2983 RMK A01 T02610077  RH  031%=      5-min Rain = 0
KQU1 102117Z 19014KT 26/08 A2983 RMK A01 T02620077  RH  031%=      5-min Rain = 0
KQU1 102118Z 20017KT 26/07 A2983 RMK A01 T02630073  RH  030%=      5-min Rain = 0
KQU1 102119Z 20015KT 26/07 A2983 RMK A01 T02640073  RH  030%=      5-min Rain = 0
KQU1 102120Z 20014KT 27/07 A2983 RMK A01 T02650073  RH  029%=      5-min Rain = 0
KQU1 102121Z 21010KT 27/07 A2983 RMK A01 T02650073  RH  030%=      5-min Rain = 0
KQU1 102122Z 21012KT 27/07 A2983 RMK A01 T02660074  RH  030%=      5-min Rain = 0
KQU1 102123Z 19012KT 27/08 A2983 RMK A01 T02660076  RH  030%=      5-min Rain = 0
KQU1 102124Z 19015KT 27/08 A2983 RMK A01 T02650078  RH  031%=      5-min Rain = 0
KQU1 102125Z 19012KT 26/08 A2983 RMK A01 T02640080  RH  031%=      5-min Rain = 0
KQU1 102126Z 19013KT 26/08 A2983 RMK A01 T02640077  RH  031%=      5-min Rain = 0
KQU1 102127Z 19013KT 26/08 A2982 RMK A01 T02640079  RH  031%=      5-min Rain = 0
KQU1 102128Z 18012KT 26/08 A2982 RMK A01 T02640080  RH  031%=      5-min Rain = 0
KQU1 102129Z 18012KT 26/08 A2982 RMK A01 T02640080  RH  031%=      5-min Rain = 0
KQU1 102130Z 19015KT 26/08 A2982 RMK A01 T02630078  RH  031%=      5-min Rain = 0
KQU1 102131Z 19014KT 26/08 A2982 RMK A01 T02620078  RH  031%=      5-min Rain = 0
KQU1 102132Z 20013KT 26/08 A2982 RMK A01 T02620075  RH  031%=      5-min Rain = 0
KQU1 102133Z 20012KT 26/07 A2982 RMK A01 T02610072  RH  030%=      5-min Rain = 0
KQU1 102134Z 20011KT 26/07 A2982 RMK A01 T02610073  RH  030%=      5-min Rain = 0
KQU1 102135Z 20011KT 26/08 A2982 RMK A01 T02620076  RH  031%=      5-min Rain = 0
KQU1 102136Z 19012KT 26/08 A2982 RMK A01 T02630077  RH  031%=      5-min Rain = 0
KQU1 102137Z 19012KT 26/08 A2982 RMK A01 T02620077  RH  031%=      5-min Rain = 0
KQU1 102138Z 19012KT 26/08 A2982 RMK A01 T02620079  RH  031%=      5-min Rain = 0
KQU1 102139Z 18011KT 26/08 A2982 RMK A01 T02620079  RH  031%=      5-min Rain = 0
KQU1 102140Z 18010KT 26/08 A2982 RMK A01 T02620078  RH  031%=      5-min Rain = 0
KQU1 102141Z 17010KT 26/08 A2982 RMK A01 T02620078  RH  031%=      5-min Rain = 0
KQU1 102142Z 18010KT 26/08 A2982 RMK A01 T02620079  RH  031%=      5-min Rain = 0
KQU1 102143Z 18010G15KT 26/08 A2982 RMK A01 T02630079  RH  031%=      5-min Rain = 0
KQU1 102144Z 20011KT 26/08 A2982 RMK A01 T02640076  RH  030%=      5-min Rain = 0
KQU1 102145Z 19010KT 26/08 A2982 RMK A01 T02640075  RH  030%=      5-min Rain = 0
KQU1 102146Z 18010KT 26/08 A2982 RMK A01 T02640078  RH  031%=      5-min Rain = 0
KQU1 102147Z 19011G16KT 27/08 A2982 RMK A01 T02650080  RH  031%=      5-min Rain = 0
KQU1 102148Z 18013KT 26/08 A2982 RMK A01 T02640082  RH  032%=      5-min Rain = 0
KQU1 102149Z 17011KT 26/08 A2982 RMK A01 T02620083  RH  032%=      5-min Rain = 0
KQU1 102150Z 18010KT 26/09 A2982 RMK A01 T02620085  RH  033%=      5-min Rain = 0
KQU1 102151Z 17012KT 26/08 A2982 RMK A01 T02610084  RH  033%=      5-min Rain = 0
KQU1 102152Z 17012KT 26/08 A2982 RMK A01 T02610084  RH  033%=      5-min Rain = 0
KQU1 102153Z 16010G15KT 26/09 A2982 RMK A01 T02610087  RH  033%=      5-min Rain = 0
KQU1 102154Z 16014KT 26/09 A2982 RMK A01 T02610091  RH  034%=      5-min Rain = 0
KQU1 102155Z 17014KT 26/09 A2982 RMK A01 T02590091  RH  035%=      5-min Rain = 0
KQU1 102156Z 16016KT 26/09 A2982 RMK A01 T02580092  RH  035%=      5-min Rain = 0
KQU1 102157Z 17015KT 26/09 A2982 RMK A01 T02570093  RH  035%=      5-min Rain = 0
KQU1 102158Z 17015KT 26/09 A2982 RMK A01 T02560094  RH  036%=      5-min Rain = 0
KQU1 102159Z 17013KT 26/09 A2982 RMK A01 T02550093  RH  036%=      5-min Rain = 0
KQU1 102200Z 17013KT 26/09 A2981 RMK A01 T02550094  RH  036%=      5-min Rain = 0
KQU1 102201Z 17013KT 26/09 A2981 RMK A01 T02550094  RH  036%=      5-min Rain = 0
KQU1 102202Z 17016KT 26/09 A2981 RMK A01 T02550094  RH  036%=      5-min Rain = 0
KQU1 102203Z 16017KT 25/10 A2981 RMK A01 T02540095  RH  037%=      5-min Rain = 0
KQU1 102204Z 16017KT 25/09 A2981 RMK A01 T02530094  RH  037%=      5-min Rain = 0
KQU1 102205Z 17016KT 25/09 A2981 RMK A01 T02520094  RH  037%=      5-min Rain = 0
KQU1 102206Z 16016KT 25/10 A2981 RMK A01 T02510095  RH  037%=      5-min Rain = 0
KQU1 102207Z 16015KT 25/10 A2981 RMK A01 T02500095  RH  037%=      5-min Rain = 0
KQU1 102208Z 17015KT 25/10 A2981 RMK A01 T02500096  RH  038%=      5-min Rain = 0
KQU1 102209Z 17013KT 25/10 A2981 RMK A01 T02490096  RH  038%=      5-min Rain = 0
KQU1 102210Z 17016KT 25/10 A2981 RMK A01 T02480096  RH  038%=      5-min Rain = 0
KQU1 102211Z 17012KT 25/10 A2981 RMK A01 T02480097  RH  038%=      5-min Rain = 0
KQU1 102212Z 17013KT 25/10 A2981 RMK A01 T02470097  RH  039%=      5-min Rain = 0
KQU1 102213Z 17015KT 25/10 A2981 RMK A01 T02470097  RH  039%=      5-min Rain = 0
KQU1 102214Z 17014KT 25/10 A2981 RMK A01 T02460098  RH  039%=      5-min Rain = 0
KQU1 102215Z 18015KT 25/10 A2981 RMK A01 T02450098  RH  039%=      5-min Rain = 0
KQU1 102216Z 17015KT 24/10 A2981 RMK A01 T02440099  RH  040%=      5-min Rain = 0
KQU1 102217Z 17016KT 24/10 A2981 RMK A01 T02430099  RH  040%=      5-min Rain = 0
KQU1 102218Z 18013KT 24/10 A2981 RMK A01 T02430100  RH  040%=      5-min Rain = 0
KQU1 102219Z 18014KT 24/10 A2981 RMK A01 T02420100  RH  041%=      5-min Rain = 0
KQU1 102220Z 18012KT 24/10 A2981 RMK A01 T02420101  RH  041%=      5-min Rain = 0
KQU1 102221Z 18015KT 24/10 A2981 RMK A01 T02420101  RH  041%=      5-min Rain = 0
KQU1 102222Z 18014KT 24/10 A2981 RMK A01 T02420101  RH  041%=      5-min Rain = 0
KQU1 102223Z 18014KT 24/10 A2981 RMK A01 T02410101  RH  041%=      5-min Rain = 0
KQU1 102224Z 18014KT 24/10 A2981 RMK A01 T02410101  RH  041%=      5-min Rain = 0
KQU1 102225Z 18013KT 24/10 A2981 RMK A01 T02400101  RH  041%=      5-min Rain = 0
KQU1 102226Z 18011KT 24/10 A2981 RMK A01 T02400102  RH  042%=      5-min Rain = 0
KQU1 102227Z 18011KT 24/10 A2981 RMK A01 T02390102  RH  042%=      5-min Rain = 0
KQU1 102228Z 18012KT 24/10 A2981 RMK A01 T02390102  RH  042%=      5-min Rain = 0
KQU1 102229Z 18012KT 24/10 A2981 RMK A01 T02380103  RH  042%=      5-min Rain = 0
KQU1 102230Z 18011KT 24/10 A2981 RMK A01 T02380103  RH  042%=      5-min Rain = 0
KQU1 102231Z 18010KT 24/10 A2981 RMK A01 T02370103  RH  043%=      5-min Rain = 0
KQU1 102232Z 18008KT 24/10 A2981 RMK A01 T02380104  RH  043%=      5-min Rain = 0
KQU1 102233Z 18009KT 24/10 A2981 RMK A01 T02380104  RH  043%=      5-min Rain = 0
KQU1 102234Z 18009KT 24/11 A2981 RMK A01 T02390105  RH  043%=      5-min Rain = 0
KQU1 102235Z 18010KT 24/11 A2981 RMK A01 T02400105  RH  042%=      5-min Rain = 0
KQU1 102236Z 18011KT 24/11 A2981 RMK A01 T02410105  RH  042%=      5-min Rain = 0
KQU1 102237Z 18009KT 24/11 A2981 RMK A01 T02420105  RH  042%=      5-min Rain = 0
KQU1 102238Z 17008KT 24/11 A2981 RMK A01 T02420106  RH  042%=      5-min Rain = 0
KQU1 102239Z 17010KT 24/11 A2981 RMK A01 T02430105  RH  042%=      5-min Rain = 0
KQU1 102240Z 17011KT 24/11 A2981 RMK A01 T02420105  RH  042%=      5-min Rain = 0
KQU1 102241Z 17010KT 24/11 A2981 RMK A01 T02420106  RH  042%=      5-min Rain = 0
KQU1 102242Z 18009KT 24/11 A2981 RMK A01 T02410106  RH  042%=      5-min Rain = 0
KQU1 102243Z 18010KT 24/11 A2981 RMK A01 T02410106  RH  043%=      5-min Rain = 0
KQU1 102244Z 17010KT 24/11 A2981 RMK A01 T02400107  RH  043%=      5-min Rain = 0
KQU1 102245Z 17011KT 24/11 A2981 RMK A01 T02390107  RH  043%=      5-min Rain = 0
KQU1 102246Z 17009KT 24/11 A2981 RMK A01 T02390108  RH  044%=      5-min Rain = 0
KQU1 102247Z 17010KT 24/11 A2981 RMK A01 T02380108  RH  044%=      5-min Rain = 0
KQU1 102248Z 17010KT 24/11 A2981 RMK A01 T02380109  RH  044%=      5-min Rain = 0
KQU1 102249Z 17009KT 24/11 A2981 RMK A01 T02380109  RH  044%=      5-min Rain = 0
KQU1 102250Z 18010KT 24/11 A2981 RMK A01 T02380109  RH  044%=      5-min Rain = 0
KQU1 102251Z 18009KT 24/11 A2981 RMK A01 T02380109  RH  044%=      5-min Rain = 0
KQU1 102252Z 18009KT 24/11 A2981 RMK A01 T02380109  RH  044%=      5-min Rain = 0
KQU1 102253Z 18010KT 24/11 A2981 RMK A01 T02370109  RH  044%=      5-min Rain = 0
KQU1 102254Z 18009KT 24/11 A2981 RMK A01 T02370109  RH  045%=      5-min Rain = 0
KQU1 102255Z 18010KT 24/11 A2981 RMK A01 T02360110  RH  045%=      5-min Rain = 0
KQU1 102256Z 18010KT 24/11 A2981 RMK A01 T02350110  RH  045%=      5-min Rain = 0
KQU1 102257Z 18010KT 24/11 A2981 RMK A01 T02350110  RH  045%=      5-min Rain = 0
KQU1 102258Z 18010KT 24/11 A2981 RMK A01 T02350110  RH  045%=      5-min Rain = 0
KQU1 102259Z 18012KT 24/11 A2981 RMK A01 T02350110  RH  045%=      5-min Rain = 0
KQU1 102300Z 18012KT 24/11 A2981 RMK A01 T02350110  RH  045%=      5-min Rain = 0
KQU1 102301Z 18011KT 24/11 A2981 RMK A01 T02350111  RH  046%=      5-min Rain = 0
KQU1 102302Z 18010KT 23/11 A2981 RMK A01 T02340111  RH  046%=      5-min Rain = 0
KQU1 102303Z 18010KT 23/11 A2981 RMK A01 T02340111  RH  046%=      5-min Rain = 0
KQU1 102304Z 19011KT 23/11 A2981 RMK A01 T02340111  RH  046%=      5-min Rain = 0
KQU1 102305Z 19011KT 23/11 A2981 RMK A01 T02340111  RH  046%=      5-min Rain = 0
KQU1 102306Z 19011KT 23/11 A2981 RMK A01 T02340111  RH  046%=      5-min Rain = 0
KQU1 102307Z 19011KT 23/11 A2981 RMK A01 T02330112  RH  046%=      5-min Rain = 0
KQU1 102308Z 18012KT 23/11 A2981 RMK A01 T02330112  RH  046%=      5-min Rain = 0
KQU1 102309Z 19010KT 23/11 A2981 RMK A01 T02330112  RH  047%=      5-min Rain = 0
KQU1 102310Z 18010KT 23/11 A2981 RMK A01 T02320112  RH  047%=      5-min Rain = 0
KQU1 102311Z 19009KT 23/11 A2981 RMK A01 T02310113  RH  047%=      5-min Rain = 0
KQU1 102312Z 19010KT 23/11 A2981 RMK A01 T02310113  RH  047%=      5-min Rain = 0
KQU1 102313Z 18010KT 23/11 A2981 RMK A01 T02300114  RH  048%=      5-min Rain = 0
KQU1 102314Z 18012KT 23/11 A2981 RMK A01 T02300114  RH  048%=      5-min Rain = 0
KQU1 102315Z 19012KT 23/12 A2981 RMK A01 T02300115  RH  048%=      5-min Rain = 0
KQU1 102316Z 18012KT 23/12 A2981 RMK A01 T02300115  RH  048%=      5-min Rain = 0
KQU1 102317Z 19013KT 23/12 A2981 RMK A01 T02300116  RH  049%=      5-min Rain = 0
KQU1 102318Z 18011KT 23/12 A2981 RMK A01 T02300117  RH  049%=      5-min Rain = 0
KQU1 102319Z 19011KT 23/12 A2981 RMK A01 T02290117  RH  049%=      5-min Rain = 0
KQU1 102320Z 19011KT 23/12 A2981 RMK A01 T02280118  RH  050%=      5-min Rain = 0
KQU1 102321Z 18011KT 23/12 A2981 RMK A01 T02280118  RH  050%=      5-min Rain = 0
KQU1 102322Z 18010KT 23/12 A2981 RMK A01 T02270118  RH  050%=      5-min Rain = 0
KQU1 102323Z 18010KT 23/12 A2981 RMK A01 T02270118  RH  050%=      5-min Rain = 0
KQU1 102324Z 18010KT 23/12 A2981 RMK A01 T02260119  RH  051%=      5-min Rain = 0
KQU1 102325Z 18010KT 23/12 A2981 RMK A01 T02250119  RH  051%=      5-min Rain = 0
KQU1 102326Z 18012KT 23/12 A2981 RMK A01 T02250120  RH  051%=      5-min Rain = 0
KQU1 102327Z 18011KT 23/12 A2981 RMK A01 T02250120  RH  051%=      5-min Rain = 0
KQU1 102328Z 18012KT 23/12 A2981 RMK A01 T02250120  RH  052%=      5-min Rain = 0
KQU1 102329Z 18012KT 22/12 A2981 RMK A01 T02240120  RH  052%=      5-min Rain = 0
KQU1 102330Z 18012KT 22/12 A2981 RMK A01 T02240121  RH  052%=      5-min Rain = 0
KQU1 102331Z 18011KT 22/12 A2981 RMK A01 T02230121  RH  052%=      5-min Rain = 0
KQU1 102332Z 19011KT 22/12 A2982 RMK A01 T02230121  RH  052%=      5-min Rain = 0
KQU1 102333Z 19010KT 22/12 A2982 RMK A01 T02220121  RH  053%=      5-min Rain = 0
KQU1 102334Z 18010KT 22/12 A2982 RMK A01 T02210121  RH  053%=      5-min Rain = 0
KQU1 102335Z 18010KT 22/12 A2982 RMK A01 T02200121  RH  053%=      5-min Rain = 0
KQU1 102336Z 18010KT 22/12 A2982 RMK A01 T02200121  RH  054%=      5-min Rain = 0
KQU1 102337Z 18010KT 22/12 A2981 RMK A01 T02190121  RH  054%=      5-min Rain = 0
KQU1 102338Z 18010KT 22/12 A2981 RMK A01 T02180121  RH  054%=      5-min Rain = 0
KQU1 102339Z 18009KT 22/12 A2981 RMK A01 T02170122  RH  054%=      5-min Rain = 0
KQU1 102340Z 18010KT 22/12 A2981 RMK A01 T02170122  RH  055%=      5-min Rain = 0
KQU1 102341Z 18009KT 22/12 A2981 RMK A01 T02160122  RH  055%=      5-min Rain = 0
KQU1 102342Z 18010KT 22/12 A2981 RMK A01 T02150122  RH  055%=      5-min Rain = 0
KQU1 102343Z 18009KT 22/12 A2981 RMK A01 T02150123  RH  056%=      5-min Rain = 0
KQU1 102344Z 18010KT 21/12 A2981 RMK A01 T02140123  RH  056%=      5-min Rain = 0
KQU1 102345Z 18009KT 21/12 A2981 RMK A01 T02140124  RH  056%=      5-min Rain = 0
KQU1 102346Z 18010KT 21/12 A2981 RMK A01 T02140124  RH  056%=      5-min Rain = 0
KQU1 102347Z 18010KT 21/12 A2981 RMK A01 T02140124  RH  057%=      5-min Rain = 0
KQU1 102348Z 18010KT 21/12 A2981 RMK A01 T02140124  RH  057%=      5-min Rain = 0
KQU1 102349Z 18009KT 21/13 A2981 RMK A01 T02140125  RH  057%=      5-min Rain = 0
KQU1 102350Z 18009KT 21/13 A2981 RMK A01 T02130125  RH  057%=      5-min Rain = 0
KQU1 102351Z 19009KT 21/13 A2981 RMK A01 T02130125  RH  057%=      5-min Rain = 0
KQU1 102352Z 19009KT 21/13 A2981 RMK A01 T02120125  RH  058%=      5-min Rain = 0
KQU1 102353Z 19009KT 21/13 A2981 RMK A01 T02120126  RH  058%=      5-min Rain = 0
KQU1 102354Z 19009KT 21/13 A2981 RMK A01 T02110125  RH  058%=      5-min Rain = 0
KQU1 102355Z 19009KT 21/13 A2981 RMK A01 T02100125  RH  058%=      5-min Rain = 0
KQU1 102356Z 19008KT 21/13 A2981 RMK A01 T02090125  RH  059%=      5-min Rain = 0
KQU1 102357Z 19008KT 21/13 A2981 RMK A01 T02070125  RH  059%=      5-min Rain = 0
KQU1 102358Z 19007KT 21/12 A2981 RMK A01 T02060124  RH  059%=      5-min Rain = 0
KQU1 102359Z 19008KT 20/12 A2981 RMK A01 T02040124  RH  060%=      5-min Rain = 0
KQU1 110000Z 19008KT 20/12 A2981 RMK A01 T02030124  RH  060%=      5-min Rain = 0
KQU1 110001Z 19008KT 20/12 A2981 RMK A01 T02010123  RH  061%=      5-min Rain = 0
KQU1 110002Z 19008KT 20/12 A2981 RMK A01 T02000123  RH  061%=      5-min Rain = 0
KQU1 110003Z 19008KT 20/12 A2981 RMK A01 T01990123  RH  062%=      5-min Rain = 0
KQU1 110004Z 19009KT 20/12 A2981 RMK A01 T01970123  RH  062%=      5-min Rain = 0
KQU1 110005Z 19008KT 20/12 A2981 RMK A01 T01970123  RH  062%=      5-min Rain = 0
KQU1 110006Z 19007KT 20/12 A2981 RMK A01 T01960122  RH  062%=      5-min Rain = 0
KQU1 110007Z 19007KT 19/12 A2981 RMK A01 T01940121  RH  063%=      5-min Rain = 0
KQU1 110008Z 20007KT 19/12 A2981 RMK A01 T01930121  RH  063%=      5-min Rain = 0
KQU1 110009Z 19007KT 19/12 A2981 RMK A01 T01910121  RH  064%=      5-min Rain = 0
KQU1 110010Z 20007KT 19/12 A2981 RMK A01 T01890120  RH  064%=      5-min Rain = 0
KQU1 110011Z 19007KT 19/12 A2981 RMK A01 T01880120  RH  065%=      5-min Rain = 0
KQU1 110012Z 19006KT 19/12 A2981 RMK A01 T01870120  RH  065%=      5-min Rain = 0
KQU1 110013Z 19007KT 19/12 A2981 RMK A01 T01860120  RH  066%=      5-min Rain = 0
KQU1 110014Z 19007KT 19/12 A2981 RMK A01 T01850120  RH  066%=      5-min Rain = 0
KQU1 110015Z 19007KT 18/12 A2981 RMK A01 T01840120  RH  066%=      5-min Rain = 0
KQU1 110016Z 19007KT 18/12 A2981 RMK A01 T01840120  RH  066%=      5-min Rain = 0
KQU1 110017Z 19007KT 18/12 A2981 RMK A01 T01830120  RH  066%=      5-min Rain = 0
KQU1 110018Z 19007KT 18/12 A2981 RMK A01 T01820120  RH  067%=      5-min Rain = 0
KQU1 110019Z 19007KT 18/12 A2981 RMK A01 T01820120  RH  067%=      5-min Rain = 0
KQU1 110020Z 19007KT 18/12 A2981 RMK A01 T01810119  RH  067%=      5-min Rain = 0
KQU1 110021Z 19007KT 18/12 A2982 RMK A01 T01800119  RH  067%=      5-min Rain = 0
KQU1 110022Z 19007KT 18/12 A2982 RMK A01 T01800119  RH  068%=      5-min Rain = 0
KQU1 110023Z 19007KT 18/12 A2982 RMK A01 T01790119  RH  068%=      5-min Rain = 0
KQU1 110024Z 18007KT 18/12 A2982 RMK A01 T01780119  RH  068%=      5-min Rain = 0
KQU1 110025Z 18007KT 18/12 A2982 RMK A01 T01770118  RH  068%=      5-min Rain = 0
KQU1 110026Z 18007KT 18/12 A2982 RMK A01 T01760118  RH  069%=      5-min Rain = 0
KQU1 110027Z 18007KT 18/12 A2982 RMK A01 T01760119  RH  069%=      5-min Rain = 0
KQU1 110028Z 18007KT 18/12 A2982 RMK A01 T01750119  RH  069%=      5-min Rain = 0
KQU1 110029Z 18007KT 18/12 A2982 RMK A01 T01750119  RH  070%=      5-min Rain = 0
KQU1 110030Z 18007KT 17/12 A2982 RMK A01 T01740118  RH  070%=      5-min Rain = 0
KQU1 110031Z 18007KT 17/12 A2981 RMK A01 T01740118  RH  070%=      5-min Rain = 0
KQU1 110032Z 18007KT 17/12 A2981 RMK A01 T01730118  RH  070%=      5-min Rain = 0
KQU1 110033Z 18007KT 17/12 A2981 RMK A01 T01720117  RH  070%=      5-min Rain = 0
KQU1 110034Z 18007KT 17/12 A2981 RMK A01 T01710117  RH  071%=      5-min Rain = 0
KQU1 110035Z 18007KT 17/12 A2981 RMK A01 T01700118  RH  071%=      5-min Rain = 0
KQU1 110036Z 18007KT 17/12 A2981 RMK A01 T01700118  RH  072%=      5-min Rain = 0
KQU1 110037Z 18007KT 17/12 A2981 RMK A01 T01700118  RH  072%=      5-min Rain = 0
KQU1 110038Z 18007KT 17/12 A2981 RMK A01 T01690118  RH  072%=      5-min Rain = 0
KQU1 110039Z 18007KT 17/12 A2981 RMK A01 T01690118  RH  072%=      5-min Rain = 0
KQU1 110040Z 19007KT 17/12 A2981 RMK A01 T01690118  RH  072%=      5-min Rain = 0
KQU1 110041Z 19008KT 17/12 A2981 RMK A01 T01690118  RH  072%=      5-min Rain = 0
KQU1 110042Z 19008KT 17/12 A2981 RMK A01 T01690119  RH  072%=      5-min Rain = 0
KQU1 110043Z 19008KT 17/12 A2981 RMK A01 T01680119  RH  072%=      5-min Rain = 0
KQU1 110044Z 19008KT 17/12 A2981 RMK A01 T01680119  RH  073%=      5-min Rain = 0
KQU1 110045Z 19008KT 17/12 A2981 RMK A01 T01680119  RH  073%=      5-min Rain = 0
KQU1 110046Z 19008KT 17/12 A2981 RMK A01 T01680119  RH  073%=      5-min Rain = 0
KQU1 110047Z 19008KT 17/12 A2981 RMK A01 T01680119  RH  073%=      5-min Rain = 0
KQU1 110048Z 19009KT 17/12 A2981 RMK A01 T01670119  RH  073%=      5-min Rain = 0
KQU1 110049Z 19009KT 17/12 A2981 RMK A01 T01670119  RH  073%=      5-min Rain = 0
KQU1 110050Z 19009KT 17/12 A2981 RMK A01 T01670120  RH  074%=      5-min Rain = 0
KQU1 110051Z 19009KT 17/12 A2981 RMK A01 T01670120  RH  074%=      5-min Rain = 0
KQU1 110052Z 19009KT 17/12 A2981 RMK A01 T01670121  RH  074%=      5-min Rain = 0
KQU1 110053Z 19009KT 17/12 A2981 RMK A01 T01670121  RH  074%=      5-min Rain = 0
KQU1 110054Z 19009KT 17/12 A2981 RMK A01 T01670121  RH  074%=      5-min Rain = 0
KQU1 110055Z 19009KT 17/12 A2981 RMK A01 T01670121  RH  074%=      5-min Rain = 0
KQU1 110056Z 19009KT 17/12 A2981 RMK A01 T01660121  RH  074%=      5-min Rain = 0
KQU1 110057Z 19009KT 17/12 A2981 RMK A01 T01660121  RH  074%=      5-min Rain = 0
KQU1 110058Z 19009KT 17/12 A2981 RMK A01 T01660121  RH  075%=      5-min Rain = 0
KQU1 110059Z 19009KT 17/12 A2981 RMK A01 T01650121  RH  075%=      5-min Rain = 0
KQU1 110100Z 19010KT 17/12 A2981 RMK A01 T01650121  RH  075%=      5-min Rain = 0
KQU1 110101Z 19010KT 17/12 A2981 RMK A01 T01650121  RH  075%=      5-min Rain = 0
KQU1 110102Z 19010KT 17/12 A2981 RMK A01 T01650121  RH  075%=      5-min Rain = 0
KQU1 110103Z 19010KT 16/12 A2981 RMK A01 T01640121  RH  075%=      5-min Rain = 0
KQU1 110104Z 19010KT 16/12 A2981 RMK A01 T01640121  RH  076%=      5-min Rain = 0
KQU1 110105Z 19010KT 16/12 A2981 RMK A01 T01640121  RH  076%=      5-min Rain = 0
KQU1 110106Z 19010KT 16/12 A2981 RMK A01 T01640122  RH  076%=      5-min Rain = 0
KQU1 110107Z 19009KT 16/12 A2981 RMK A01 T01640122  RH  076%=      5-min Rain = 0
KQU1 110108Z 19009KT 16/12 A2981 RMK A01 T01640122  RH  076%=      5-min Rain = 0
KQU1 110109Z 19010KT 16/12 A2981 RMK A01 T01640121  RH  076%=      5-min Rain = 0
KQU1 110110Z 18009KT 16/12 A2981 RMK A01 T01640121  RH  076%=      5-min Rain = 0
KQU1 110111Z 18010KT 16/12 A2981 RMK A01 T01630121  RH  076%=      5-min Rain = 0
KQU1 110112Z 18010KT 16/12 A2981 RMK A01 T01630121  RH  076%=      5-min Rain = 0
KQU1 110113Z 18010KT 16/12 A2981 RMK A01 T01620120  RH  076%=      5-min Rain = 0
KQU1 110114Z 18010KT 16/12 A2981 RMK A01 T01610120  RH  077%=      5-min Rain = 0
KQU1 110115Z 19010KT 16/12 A2981 RMK A01 T01610120  RH  077%=      5-min Rain = 0
KQU1 110116Z 19010KT 16/12 A2981 RMK A01 T01610120  RH  077%=      5-min Rain = 0
KQU1 110117Z 18010KT 16/12 A2981 RMK A01 T01600120  RH  077%=      5-min Rain = 0
KQU1 110118Z 18010KT 16/12 A2981 RMK A01 T01600121  RH  077%=      5-min Rain = 0
KQU1 110119Z 18010KT 16/12 A2981 RMK A01 T01600120  RH  077%=      5-min Rain = 0
KQU1 110120Z 18010KT 16/12 A2981 RMK A01 T01600120  RH  077%=      5-min Rain = 0
KQU1 110121Z 18010KT 16/12 A2981 RMK A01 T01600121  RH  078%=      5-min Rain = 0
KQU1 110122Z 19009KT 16/12 A2981 RMK A01 T01600121  RH  078%=      5-min Rain = 0
KQU1 110123Z 19009KT 16/12 A2981 RMK A01 T01600122  RH  078%=      5-min Rain = 0
KQU1 110124Z 19009KT 16/12 A2981 RMK A01 T01610122  RH  078%=      5-min Rain = 0
KQU1 110125Z 19009KT 16/12 A2981 RMK A01 T01610122  RH  078%=      5-min Rain = 0
KQU1 110126Z 19009KT 16/12 A2981 RMK A01 T01620122  RH  078%=      5-min Rain = 0
KQU1 110127Z 19010KT 16/12 A2981 RMK A01 T01620123  RH  077%=      5-min Rain = 0
KQU1 110128Z 19009KT 16/12 A2981 RMK A01 T01620123  RH  077%=      5-min Rain = 0
KQU1 110129Z 19010KT 16/12 A2981 RMK A01 T01620123  RH  077%=      5-min Rain = 0
KQU1 110130Z 19010KT 16/12 A2981 RMK A01 T01630123  RH  077%=      5-min Rain = 0
KQU1 110131Z 19010KT 16/12 A2981 RMK A01 T01630123  RH  077%=      5-min Rain = 0
KQU1 110132Z 19010KT 16/12 A2981 RMK A01 T01630123  RH  077%=      5-min Rain = 0
KQU1 110133Z 19010KT 16/12 A2981 RMK A01 T01630123  RH  077%=      5-min Rain = 0
KQU1 110134Z 19011KT 16/12 A2981 RMK A01 T01640123  RH  077%=      5-min Rain = 0
KQU1 110135Z 19011KT 16/12 A2981 RMK A01 T01640123  RH  077%=      5-min Rain = 0
KQU1 110136Z 19011KT 16/12 A2981 RMK A01 T01640123  RH  077%=      5-min Rain = 0
KQU1 110137Z 20010KT 17/12 A2981 RMK A01 T01650123  RH  076%=      5-min Rain = 0
KQU1 110138Z 20010KT 17/12 A2981 RMK A01 T01650123  RH  076%=      5-min Rain = 0
KQU1 110139Z 20010KT 17/12 A2981 RMK A01 T01650123  RH  076%=      5-min Rain = 0
KQU1 110140Z 20010KT 17/12 A2981 RMK A01 T01650123  RH  076%=      5-min Rain = 0
KQU1 110141Z 20010KT 17/12 A2981 RMK A01 T01650122  RH  076%=      5-min Rain = 0
KQU1 110142Z 20010KT 17/12 A2981 RMK A01 T01650122  RH  076%=      5-min Rain = 0
KQU1 110143Z 20010KT 16/12 A2981 RMK A01 T01640122  RH  076%=      5-min Rain = 0
KQU1 110144Z 20010KT 16/12 A2981 RMK A01 T01640122  RH  076%=      5-min Rain = 0
KQU1 110145Z 20010KT 16/12 A2981 RMK A01 T01640122  RH  076%=      5-min Rain = 0
KQU1 110146Z 20010KT 16/12 A2981 RMK A01 T01640122  RH  076%=      5-min Rain = 0
KQU1 110147Z 20010KT 16/12 A2981 RMK A01 T01640122  RH  076%=      5-min Rain = 0
KQU1 110148Z 20010KT 16/12 A2981 RMK A01 T01630122  RH  076%=      5-min Rain = 0
KQU1 110149Z 20010KT 16/12 A2981 RMK A01 T01630121  RH  076%=      5-min Rain = 0
KQU1 110150Z 20010KT 16/12 A2981 RMK A01 T01620121  RH  077%=      5-min Rain = 0
KQU1 110151Z 20011KT 16/12 A2981 RMK A01 T01610121  RH  077%=      5-min Rain = 0
KQU1 110152Z 20010KT 16/12 A2981 RMK A01 T01600121  RH  077%=      5-min Rain = 0
KQU1 110153Z 20010KT 16/12 A2981 RMK A01 T01600121  RH  078%=      5-min Rain = 0
KQU1 110154Z 20010KT 16/12 A2981 RMK A01 T01600121  RH  078%=      5-min Rain = 0
KQU1 110155Z 20010KT 16/12 A2981 RMK A01 T01600121  RH  078%=      5-min Rain = 0
KQU1 110156Z 21010KT 16/12 A2981 RMK A01 T01600121  RH  078%=      5-min Rain = 0
KQU1 110157Z 21010KT 16/12 A2981 RMK A01 T01600121  RH  078%=      5-min Rain = 0
KQU1 110158Z 21010KT 16/12 A2981 RMK A01 T01590121  RH  078%=      5-min Rain = 0
KQU1 110159Z 21010KT 16/12 A2981 RMK A01 T01600121  RH  078%=      5-min Rain = 0
KQU1 110200Z 21010KT 16/12 A2981 RMK A01 T01590121  RH  078%=      5-min Rain = 0
KQU1 110201Z 21011KT 16/12 A2981 RMK A01 T01590121  RH  078%=      5-min Rain = 0
KQU1 110202Z 21011KT 16/12 A2981 RMK A01 T01590121  RH  078%=      5-min Rain = 0
KQU1 110203Z 21011KT 16/12 A2981 RMK A01 T01600121  RH  078%=      5-min Rain = 0
KQU1 110204Z 21011KT 16/12 A2981 RMK A01 T01610121  RH  077%=      5-min Rain = 0
KQU1 110205Z 21011KT 16/12 A2981 RMK A01 T01620122  RH  077%=      5-min Rain = 0
KQU1 110206Z 21011KT 16/12 A2981 RMK A01 T01640122  RH  076%=      5-min Rain = 0
KQU1 110207Z 21011KT 17/12 A2981 RMK A01 T01660122  RH  075%=      5-min Rain = 0
KQU1 110208Z 21011KT 17/12 A2981 RMK A01 T01680121  RH  074%=      5-min Rain = 0
KQU1 110209Z 22011KT 17/12 A2981 RMK A01 T01690120  RH  073%=      5-min Rain = 0
KQU1 110210Z 21011KT 17/12 A2981 RMK A01 T01710119  RH  072%=      5-min Rain = 0
KQU1 110211Z 21011KT 17/12 A2981 RMK A01 T01720118  RH  071%=      5-min Rain = 0
KQU1 110212Z 21011KT 17/12 A2981 RMK A01 T01720117  RH  070%=      5-min Rain = 0
KQU1 110213Z 22010KT 17/12 A2981 RMK A01 T01730116  RH  069%=      5-min Rain = 0
KQU1 110214Z 22010KT 17/12 A2981 RMK A01 T01730115  RH  069%=      5-min Rain = 0
KQU1 110215Z 22009KT 17/11 A2981 RMK A01 T01730114  RH  069%=      5-min Rain = 0
KQU1 110216Z 22009KT 17/11 A2981 RMK A01 T01720114  RH  069%=      5-min Rain = 0
KQU1 110217Z 22009KT 17/11 A2981 RMK A01 T01710113  RH  069%=      5-min Rain = 0
KQU1 110218Z 22009KT 17/11 A2981 RMK A01 T01700113  RH  069%=      5-min Rain = 0
KQU1 110219Z 22010KT 17/11 A2981 RMK A01 T01690112  RH  069%=      5-min Rain = 0
KQU1 110220Z 22009KT 17/11 A2981 RMK A01 T01690111  RH  068%=      5-min Rain = 0
KQU1 110221Z 22009KT 17/11 A2981 RMK A01 T01680110  RH  068%=      5-min Rain = 0
KQU1 110222Z 22009KT 17/11 A2981 RMK A01 T01680108  RH  068%=      5-min Rain = 0
KQU1 110223Z 22008KT 17/11 A2981 RMK A01 T01670108  RH  068%=      5-min Rain = 0
KQU1 110224Z 22008KT 17/11 A2981 RMK A01 T01660107  RH  068%=      5-min Rain = 0
KQU1 110225Z 22008KT 17/11 A2981 RMK A01 T01650107  RH  069%=      5-min Rain = 0
KQU1 110226Z 22007KT 16/11 A2981 RMK A01 T01640107  RH  069%=      5-min Rain = 0
KQU1 110227Z 21007KT 16/11 A2981 RMK A01 T01620107  RH  070%=      5-min Rain = 0
KQU1 110228Z 21008KT 16/11 A2981 RMK A01 T01600107  RH  071%=      5-min Rain = 0
KQU1 110229Z 22008KT 16/11 A2981 RMK A01 T01590107  RH  071%=      5-min Rain = 0
KQU1 110230Z 22009KT 16/10 A2981 RMK A01 T01590104  RH  070%=      5-min Rain = 0
KQU1 110231Z 22009KT 16/10 A298 RMK A01 T01600102  RH  068%=      5-min Rain = 0
KQU1 110232Z 22009KT 16/10 A298 RMK A01 T01610098  RH  066%=      5-min Rain = 0
KQU1 110233Z 22010KT 16/10 A298 RMK A01 T01630095  RH  064%=      5-min Rain = 0
KQU1 110234Z 23010KT 17/09 A298 RMK A01 T01650091  RH  062%=      5-min Rain = 0
KQU1 110235Z 23010KT 17/09 A298 RMK A01 T01680087  RH  059%=      5-min Rain = 0
KQU1 110236Z 23010KT 17/08 A298 RMK A01 T01730084  RH  056%=      5-min Rain = 0
KQU1 110237Z 23011KT 18/08 A298 RMK A01 T01780081  RH  053%=      5-min Rain = 0
KQU1 110238Z 23013KT 18/08 A298 RMK A01 T01830078  RH  050%=      5-min Rain = 0
KQU1 110239Z 23013KT 19/08 A298 RMK A01 T01880076  RH  048%=      5-min Rain = 0
KQU1 110240Z 22014KT 19/07 A298 RMK A01 T01920073  RH  046%=      5-min Rain = 0
KQU1 110241Z 22014KT 20/07 A298 RMK A01 T01960071  RH  044%=      5-min Rain = 0
KQU1 110242Z 23013KT 20/07 A298 RMK A01 T01990070  RH  043%=      5-min Rain = 0
KQU1 110243Z 23013KT 20/07 A298 RMK A01 T02000069  RH  043%=      5-min Rain = 0
KQU1 110244Z 23014KT 20/07 A298 RMK A01 T02000069  RH  042%=      5-min Rain = 0
KQU1 110245Z 23014KT 20/07 A298 RMK A01 T02010068  RH  042%=      5-min Rain = 0
KQU1 110246Z 23013KT 20/07 A298 RMK A01 T02020068  RH  042%=      5-min Rain = 0
KQU1 110247Z 23014G19KT 20/07 A298 RMK A01 T02020067  RH  042%=      5-min Rain = 0
KQU1 110248Z 23014KT 20/07 A298 RMK A01 T02020067  RH  041%=      5-min Rain = 0
KQU1 110249Z 23014KT 20/07 A298 RMK A01 T02020067  RH  041%=      5-min Rain = 0
KQU1 110250Z 23015KT 20/07 A298 RMK A01 T02030067  RH  041%=      5-min Rain = 0
KQU1 110251Z 23016KT 20/07 A298 RMK A01 T02040067  RH  041%=      5-min Rain = 0
KQU1 110252Z 23015KT 20/07 A298 RMK A01 T02040067  RH  041%=      5-min Rain = 0
KQU1 110253Z 23015KT 20/07 A298 RMK A01 T02040067  RH  041%=      5-min Rain = 0
KQU1 110254Z 23015KT 20/07 A298 RMK A01 T02040067  RH  041%=      5-min Rain = 0
KQU1 110255Z 23017KT 20/07 A298 RMK A01 T02040067  RH  041%=      5-min Rain = 0
KQU1 110256Z 23014KT 21/07 A298 RMK A01 T02050067  RH  041%=      5-min Rain = 0
KQU1 110257Z 23015KT 20/07 A298 RMK A01 T02040067  RH  041%=      5-min Rain = 0
KQU1 110258Z 23015KT 20/07 A298 RMK A01 T02040067  RH  041%=      5-min Rain = 0
KQU1 110259Z 23014KT 20/07 A298 RMK A01 T02030067  RH  041%=      5-min Rain = 0
KQU1 110300Z 23015KT 20/07 A298 RMK A01 T02030067  RH  041%=      5-min Rain = 0
KQU1 110301Z 23015KT 20/07 A298 RMK A01 T02030067  RH  041%=      5-min Rain = 0
KQU1 110302Z 24014KT 20/07 A298 RMK A01 T02030067  RH  041%=      5-min Rain = 0
KQU1 110303Z 24013KT 20/07 A298 RMK A01 T02020067  RH  041%=      5-min Rain = 0
KQU1 110304Z 24015KT 20/07 A298 RMK A01 T02010067  RH  042%=      5-min Rain = 0
KQU1 110305Z 24016KT 20/07 A298 RMK A01 T02020066  RH  041%=      5-min Rain = 0
KQU1 110306Z 24016G21KT 20/07 A298 RMK A01 T02030066  RH  041%=      5-min Rain = 0
KQU1 110307Z 24018KT 20/07 A298 RMK A01 T02040065  RH  040%=      5-min Rain = 0
KQU1 110308Z 24016KT 21/07 A298 RMK A01 T02050065  RH  040%=      5-min Rain = 0
KQU1 110309Z 25013KT 20/07 A298 RMK A01 T02040065  RH  041%=      5-min Rain = 0
KQU1 110310Z 25013KT 20/07 A298 RMK A01 T02030065  RH  041%=      5-min Rain = 0
KQU1 110311Z 25015KT 20/07 A298 RMK A01 T02020065  RH  041%=      5-min Rain = 0
KQU1 110312Z 25016KT 20/07 A298 RMK A01 T02020065  RH  041%=      5-min Rain = 0
KQU1 110313Z 25016KT 20/07 A298 RMK A01 T02020065  RH  041%=      5-min Rain = 0
KQU1 110314Z 25016KT 20/07 A298 RMK A01 T02010065  RH  041%=      5-min Rain = 0
KQU1 110315Z 25014G19KT 20/07 A298 RMK A01 T02010065  RH  041%=      5-min Rain = 0
KQU1 110316Z 26017KT 20/07 A298 RMK A01 T01990065  RH  042%=      5-min Rain = 0
KQU1 110317Z 25018KT 20/07 A298 RMK A01 T01970065  RH  042%=      5-min Rain = 0
KQU1 110318Z 26013G18KT 20/07 A298 RMK A01 T01950065  RH  043%=      5-min Rain = 0
KQU1 110319Z 26013G18KT 19/07 A298 RMK A01 T01920066  RH  044%=      5-min Rain = 0
KQU1 110320Z 26015KT 19/07 A298 RMK A01 T01880066  RH  045%=      5-min Rain = 0
KQU1 110321Z 27017KT 19/07 A2981 RMK A01 T01850066  RH  046%=      5-min Rain = 0
KQU1 110322Z 26017KT 18/07 A2981 RMK A01 T01820065  RH  046%=      5-min Rain = 0
KQU1 110323Z 26015KT 18/07 A2981 RMK A01 T01790065  RH  047%=      5-min Rain = 0
KQU1 110324Z 26016KT 18/07 A2981 RMK A01 T01760065  RH  048%=      5-min Rain = 0
KQU1 110325Z 26015KT 18/07 A2981 RMK A01 T01750065  RH  048%=      5-min Rain = 0
KQU1 110326Z 26015KT 17/06 A2981 RMK A01 T01730064  RH  049%=      5-min Rain = 0
KQU1 110327Z 26013KT 17/06 A2981 RMK A01 T01710064  RH  049%=      5-min Rain = 0
KQU1 110328Z 27013KT 17/06 A2981 RMK A01 T01700064  RH  050%=      5-min Rain = 0
KQU1 110329Z 26014KT 17/06 A2981 RMK A01 T01690063  RH  050%=      5-min Rain = 0
KQU1 110330Z 26014KT 17/06 A2981 RMK A01 T01690063  RH  050%=      5-min Rain = 0
KQU1 110331Z 26014KT 17/06 A2981 RMK A01 T01680062  RH  049%=      5-min Rain = 0
KQU1 110332Z 26014KT 17/06 A2981 RMK A01 T01680061  RH  049%=      5-min Rain = 0
KQU1 110333Z 26014KT 17/06 A2981 RMK A01 T01680061  RH  049%=      5-min Rain = 0
KQU1 110334Z 26015KT 17/06 A2981 RMK A01 T01690060  RH  049%=      5-min Rain = 0
KQU1 110335Z 26014KT 17/06 A2981 RMK A01 T01700059  RH  048%=      5-min Rain = 0
KQU1 110336Z 26015KT 17/06 A2981 RMK A01 T01700057  RH  047%=      5-min Rain = 0
KQU1 110337Z 26014KT 17/06 A2981 RMK A01 T01710056  RH  047%=      5-min Rain = 0
KQU1 110338Z 26015KT 17/05 A2981 RMK A01 T01710054  RH  046%=      5-min Rain = 0
KQU1 110339Z 26014KT 17/05 A298 RMK A01 T01720053  RH  045%=      5-min Rain = 0
KQU1 110340Z 26015KT 17/05 A2981 RMK A01 T01730052  RH  045%=      5-min Rain = 0
KQU1 110341Z 26016KT 17/05 A2981 RMK A01 T01740052  RH  045%=      5-min Rain = 0
KQU1 110342Z 26015KT 18/05 A2981 RMK A01 T01750052  RH  044%=      5-min Rain = 0
KQU1 110343Z 26014KT 18/05 A2981 RMK A01 T01750052  RH  044%=      5-min Rain = 0
KQU1 110344Z 26017KT 18/05 A2981 RMK A01 T01760053  RH  044%=      5-min Rain = 0
KQU1 110345Z 26016KT 18/05 A2981 RMK A01 T01770053  RH  044%=      5-min Rain = 0
KQU1 110346Z 26016KT 18/05 A298 RMK A01 T01770052  RH  044%=      5-min Rain = 0
KQU1 110347Z 26019KT 18/05 A298 RMK A01 T01780052  RH  044%=      5-min Rain = 0
KQU1 110348Z 26018KT 18/05 A298 RMK A01 T01790052  RH  043%=      5-min Rain = 0
KQU1 110349Z 26017G22KT 18/05 A298 RMK A01 T01790052  RH  043%=      5-min Rain = 0
KQU1 110350Z 26021KT 18/05 A298 RMK A01 T01810052  RH  043%=      5-min Rain = 0
KQU1 110351Z 26022KT 18/05 A298 RMK A01 T01820052  RH  042%=      5-min Rain = 0
KQU1 110352Z 26018KT 18/05 A298 RMK A01 T01830051  RH  042%=      5-min Rain = 0
KQU1 110353Z 26019G24KT 18/05 A298 RMK A01 T01830051  RH  042%=      5-min Rain = 0
KQU1 110354Z 26019KT 18/05 A298 RMK A01 T01830051  RH  042%=      5-min Rain = 0
KQU1 110355Z 26018KT 18/05 A298 RMK A01 T01840051  RH  042%=      5-min Rain = 0
KQU1 110356Z 26017KT 18/05 A298 RMK A01 T01840051  RH  041%=      5-min Rain = 0
KQU1 110357Z 26016KT 18/05 A2981 RMK A01 T01840050  RH  041%=      5-min Rain = 0
KQU1 110358Z 26020KT 18/05 A2981 RMK A01 T01840051  RH  041%=      5-min Rain = 0
KQU1 110359Z 26018KT 18/05 A2981 RMK A01 T01840050  RH  041%=      5-min Rain = 0
KQU1 110400Z 26019KT 18/05 A2981 RMK A01 T01840050  RH  041%=      5-min Rain = 0
KQU1 110401Z 26019KT 18/05 A2981 RMK A01 T01840050  RH  041%=      5-min Rain = 0
KQU1 110402Z 26018KT 18/05 A2981 RMK A01 T01840050  RH  041%=      5-min Rain = 0
KQU1 110403Z 26018KT 18/05 A2981 RMK A01 T01840050  RH  041%=      5-min Rain = 0
KQU1 110404Z 26019KT 18/05 A2981 RMK A01 T01840050  RH  041%=      5-min Rain = 0
KQU1 110405Z 26018KT 18/05 A2981 RMK A01 T01830050  RH  041%=      5-min Rain = 0
KQU1 110406Z 26016KT 18/05 A2981 RMK A01 T01830050  RH  041%=      5-min Rain = 0
KQU1 110407Z 26017KT 18/05 A2981 RMK A01 T01830050  RH  041%=      5-min Rain = 0
KQU1 110408Z 26016KT 18/05 A2981 RMK A01 T01830050  RH  042%=      5-min Rain = 0
KQU1 110409Z 26018KT 18/05 A2981 RMK A01 T01820049  RH  041%=      5-min Rain = 0
KQU1 110410Z 26018KT 18/05 A2981 RMK A01 T01830049  RH  041%=      5-min Rain = 0
KQU1 110411Z 26017KT 18/05 A2981 RMK A01 T01830049  RH  041%=      5-min Rain = 0
KQU1 110412Z 26017KT 18/05 A2981 RMK A01 T01830048  RH  041%=      5-min Rain = 0
KQU1 110413Z 26017KT 18/05 A2981 RMK A01 T01830048  RH  041%=      5-min Rain = 0
KQU1 110414Z 26018KT 18/05 A298 RMK A01 T01820046  RH  041%=      5-min Rain = 0
KQU1 110415Z 26018KT 18/05 A2981 RMK A01 T01830046  RH  040%=      5-min Rain = 0
KQU1 110416Z 26017KT 18/05 A2981 RMK A01 T01830045  RH  040%=      5-min Rain = 0
KQU1 110417Z 27017KT 18/04 A2981 RMK A01 T01830044  RH  040%=      5-min Rain = 0
KQU1 110418Z 27016KT 18/04 A2981 RMK A01 T01820044  RH  040%=      5-min Rain = 0
KQU1 110419Z 27014KT 18/04 A2981 RMK A01 T01810044  RH  040%=      5-min Rain = 0
KQU1 110420Z 27014KT 18/04 A2981 RMK A01 T01800043  RH  040%=      5-min Rain = 0
KQU1 110421Z 27016KT 18/04 A2981 RMK A01 T01800043  RH  040%=      5-min Rain = 0
KQU1 110422Z 27015KT 18/04 A2981 RMK A01 T01800041  RH  040%=      5-min Rain = 0
KQU1 110423Z 27013KT 18/04 A2981 RMK A01 T01800040  RH  039%=      5-min Rain = 0
KQU1 110424Z 27012KT 18/04 A2981 RMK A01 T01790039  RH  039%=      5-min Rain = 0
KQU1 110425Z 28011KT 18/04 A2981 RMK A01 T01790038  RH  039%=      5-min Rain = 0
KQU1 110426Z 28012KT 18/04 A2981 RMK A01 T01790036  RH  039%=      5-min Rain = 0
KQU1 110427Z 29012KT 18/03 A2981 RMK A01 T01800034  RH  038%=      5-min Rain = 0
KQU1 110428Z 28010G15KT 18/03 A2981 RMK A01 T01800033  RH  038%=      5-min Rain = 0
KQU1 110429Z 29013KT 18/03 A2981 RMK A01 T01790030  RH  037%=      5-min Rain = 0
KQU1 110430Z 29013KT 18/03 A2981 RMK A01 T01770027  RH  037%=      5-min Rain = 0
KQU1 110431Z 28012KT 18/02 A2981 RMK A01 T01750023  RH  036%=      5-min Rain = 0
KQU1 110432Z 28013KT 17/02 A2981 RMK A01 T01740021  RH  036%=      5-min Rain = 0
KQU1 110433Z 29012KT 17/02 A2982 RMK A01 T01720019  RH  036%=      5-min Rain = 0
KQU1 110434Z 29010G15KT 17/02 A2982 RMK A01 T01710018  RH  036%=      5-min Rain = 0
KQU1 110435Z 29009KT 17/02 A2982 RMK A01 T01700017  RH  036%=      5-min Rain = 0
KQU1 110436Z 29009KT 17/02 A2982 RMK A01 T01690016  RH  036%=      5-min Rain = 0
KQU1 110437Z 30010KT 17/02 A2982 RMK A01 T01680015  RH  036%=      5-min Rain = 0
KQU1 110438Z 30009KT 17/02 A2982 RMK A01 T01670015  RH  036%=      5-min Rain = 0
KQU1 110439Z 30008KT 17/02 A2982 RMK A01 T01650015  RH  036%=      5-min Rain = 0
KQU1 110440Z 30009KT 16/01 A2982 RMK A01 T01640013  RH  036%=      5-min Rain = 0
KQU1 110441Z 31007KT 16/02 A2982 RMK A01 T01630015  RH  037%=      5-min Rain = 0
KQU1 110442Z 32009KT 16/02 A2982 RMK A01 T01610016  RH  037%=      5-min Rain = 0
KQU1 110443Z 32008KT 16/02 A2982 RMK A01 T01590015  RH  038%=      5-min Rain = 0
KQU1 110444Z 32008KT 16/02 A2982 RMK A01 T01570015  RH  038%=      5-min Rain = 0
KQU1 110445Z 31009KT 15/02 A2982 RMK A01 T01540015  RH  039%=      5-min Rain = 0
KQU1 110446Z 30010KT 15/01 A2982 RMK A01 T01530014  RH  039%=      5-min Rain = 0
KQU1 110447Z 30010KT 15/01 A2982 RMK A01 T01520014  RH  039%=      5-min Rain = 0
KQU1 110448Z 29011KT 15/01 A2982 RMK A01 T01510013  RH  039%=      5-min Rain = 0
KQU1 110449Z 29011KT 15/01 A2982 RMK A01 T01500014  RH  039%=      5-min Rain = 0
KQU1 110450Z 29012KT 15/01 A2982 RMK A01 T01500013  RH  039%=      5-min Rain = 0
KQU1 110451Z 29011KT 15/01 A2982 RMK A01 T01500012  RH  039%=      5-min Rain = 0
KQU1 110452Z 29013KT 15/01 A2982 RMK A01 T01490012  RH  039%=      5-min Rain = 0
KQU1 110453Z 29013KT 15/01 A2982 RMK A01 T01480012  RH  039%=      5-min Rain = 0
KQU1 110454Z 29013KT 15/01 A2982 RMK A01 T01480011  RH  039%=      5-min Rain = 0
KQU1 110455Z 29013KT 15/01 A2982 RMK A01 T01470011  RH  039%=      5-min Rain = 0
KQU1 110456Z 29012KT 15/01 A2982 RMK A01 T01460011  RH  040%=      5-min Rain = 0
KQU1 110457Z 29012KT 15/01 A2982 RMK A01 T01460011  RH  040%=      5-min Rain = 0
KQU1 110458Z 29013KT 15/01 A2982 RMK A01 T01450011  RH  040%=      5-min Rain = 0
KQU1 110459Z 29013KT 14/01 A2982 RMK A01 T01440011  RH  040%=      5-min Rain = 0
KQU1 110500Z 29015KT 14/01 A2982 RMK A01 T01440011  RH  040%=      5-min Rain = 0
KQU1 110501Z 29015KT 14/01 A2982 RMK A01 T01430011  RH  040%=      5-min Rain = 0
KQU1 110502Z 29014KT 14/01 A2982 RMK A01 T01430011  RH  041%=      5-min Rain = 0
KQU1 110503Z 29015KT 14/01 A2982 RMK A01 T01420010  RH  041%=      5-min Rain = 0
KQU1 110504Z 29014KT 14/01 A2982 RMK A01 T01420010  RH  041%=      5-min Rain = 0
KQU1 110505Z 29014KT 14/01 A2982 RMK A01 T01420010  RH  041%=      5-min Rain = 0
KQU1 110506Z 29013KT 14/01 A2982 RMK A01 T01410010  RH  041%=      5-min Rain = 0
KQU1 110507Z 30014KT 14/01 A2982 RMK A01 T01410011  RH  041%=      5-min Rain = 0
KQU1 110508Z 30014KT 14/01 A2982 RMK A01 T01410011  RH  041%=      5-min Rain = 0
KQU1 110509Z 31012KT 14/01 A2982 RMK A01 T01400011  RH  041%=      5-min Rain = 0
KQU1 110510Z 31009KT 14/01 A2982 RMK A01 T01390011  RH  042%=      5-min Rain = 0
KQU1 110511Z 32008KT 14/01 A2982 RMK A01 T01380012  RH  042%=      5-min Rain = 0
KQU1 110512Z 33008KT 14/01 A2982 RMK A01 T01380012  RH  042%=      5-min Rain = 0
KQU1 110513Z 33008KT 14/01 A2982 RMK A01 T01370013  RH  043%=      5-min Rain = 0
KQU1 110514Z 32009KT 14/01 A2982 RMK A01 T01370012  RH  043%=      5-min Rain = 0
KQU1 110515Z 32009KT 14/01 A2983 RMK A01 T01370013  RH  043%=      5-min Rain = 0
KQU1 110516Z 31010KT 14/01 A2983 RMK A01 T01360012  RH  043%=      5-min Rain = 0
KQU1 110517Z 31008KT 14/01 A2983 RMK A01 T01360012  RH  043%=      5-min Rain = 0
KQU1 110518Z 31008KT 14/01 A2983 RMK A01 T01350012  RH  043%=      5-min Rain = 0
KQU1 110519Z 31008KT 14/01 A2983 RMK A01 T01350012  RH  043%=      5-min Rain = 0
KQU1 110520Z 30008KT 13/01 A2983 RMK A01 T01340012  RH  043%=      5-min Rain = 0
KQU1 110521Z 30009KT 13/01 A2983 RMK A01 T01340012  RH  044%=      5-min Rain = 0
KQU1 110522Z 30009KT 13/01 A2983 RMK A01 T01340013  RH  044%=      5-min Rain = 0
KQU1 110523Z 30009KT 13/01 A2983 RMK A01 T01340012  RH  044%=      5-min Rain = 0
KQU1 110524Z 30008KT 13/01 A2982 RMK A01 T01340012  RH  043%=      5-min Rain = 0
KQU1 110525Z 31008KT 14/01 A2982 RMK A01 T01350012  RH  043%=      5-min Rain = 0
KQU1 110526Z 30008KT 14/01 A2983 RMK A01 T01350012  RH  043%=      5-min Rain = 0
KQU1 110527Z 30008KT 14/01 A2983 RMK A01 T01360011  RH  043%=      5-min Rain = 0
KQU1 110528Z 29007KT 14/01 A2983 RMK A01 T01360011  RH  043%=      5-min Rain = 0
KQU1 110529Z 29008KT 14/01 A2983 RMK A01 T01360011  RH  043%=      5-min Rain = 0
KQU1 110530Z 29008KT 14/01 A2983 RMK A01 T01360011  RH  043%=      5-min Rain = 0
KQU1 110531Z 29008KT 14/01 A2983 RMK A01 T01360010  RH  042%=      5-min Rain = 0
KQU1 110532Z 29007KT 14/01 A2983 RMK A01 T01360009  RH  042%=      5-min Rain = 0
KQU1 110533Z 29008KT 14/01 A2983 RMK A01 T01360009  RH  042%=      5-min Rain = 0
KQU1 110534Z 28008KT 14/01 A2983 RMK A01 T01370008  RH  042%=      5-min Rain = 0
KQU1 110535Z 29008KT 14/01 A2983 RMK A01 T01370008  RH  041%=      5-min Rain = 0
KQU1 110536Z 29009KT 14/01 A2983 RMK A01 T01370008  RH  041%=      5-min Rain = 0
KQU1 110537Z 29008KT 14/01 A2983 RMK A01 T01370007  RH  041%=      5-min Rain = 0
KQU1 110538Z 28008KT 14/01 A2983 RMK A01 T01370007  RH  041%=      5-min Rain = 0
KQU1 110539Z 28009KT 14/01 A2983 RMK A01 T01370006  RH  041%=      5-min Rain = 0
KQU1 110540Z 28009KT 14/01 A2983 RMK A01 T01370006  RH  041%=      5-min Rain = 0
KQU1 110541Z 28009KT 14/01 A2983 RMK A01 T01370006  RH  041%=      5-min Rain = 0
KQU1 110542Z 28009KT 14/01 A2984 RMK A01 T01370006  RH  041%=      5-min Rain = 0
KQU1 110543Z 29008KT 14/01 A2984 RMK A01 T01370006  RH  041%=      5-min Rain = 0
KQU1 110544Z 29007KT 14/01 A2984 RMK A01 T01360007  RH  041%=      5-min Rain = 0
KQU1 110545Z 29007KT 14/01 A2984 RMK A01 T01360006  RH  041%=      5-min Rain = 0
KQU1 110546Z 29007KT 14/01 A2984 RMK A01 T01350006  RH  041%=      5-min Rain = 0
KQU1 110547Z 29008KT 14/01 A2984 RMK A01 T01350007  RH  041%=      5-min Rain = 0
KQU1 110548Z 29008KT 13/01 A2984 RMK A01 T01340007  RH  042%=      5-min Rain = 0
KQU1 110549Z 29009KT 13/01 A2984 RMK A01 T01340006  RH  042%=      5-min Rain = 0
KQU1 110550Z 28009KT 13/01 A2984 RMK A01 T01340006  RH  042%=      5-min Rain = 0
KQU1 110551Z 28009KT 14/01 A2984 RMK A01 T01350006  RH  041%=      5-min Rain = 0
KQU1 110552Z 28010KT 13/01 A2984 RMK A01 T01340006  RH  042%=      5-min Rain = 0
KQU1 110553Z 28010KT 13/01 A2984 RMK A01 T01340006  RH  042%=      5-min Rain = 0
KQU1 110554Z 28009KT 13/01 A2985 RMK A01 T01330007  RH  042%=      5-min Rain = 0
KQU1 110555Z 28009KT 13/01 A2985 RMK A01 T01320007  RH  042%=      5-min Rain = 0
KQU1 110556Z 28009KT 13/01 A2985 RMK A01 T01320007  RH  042%=      5-min Rain = 0
KQU1 110557Z 28008KT 13/01 A2985 RMK A01 T01310007  RH  043%=      5-min Rain = 0
KQU1 110558Z 28009KT 13/01 A2985 RMK A01 T01300008  RH  043%=      5-min Rain = 0
KQU1 110559Z 28009KT 13/01 A2985 RMK A01 T01300008  RH  043%=      5-min Rain = 0

Page generated in 0.0855 seconds.